KAL07D RKSI-PANC
Flight info
| Callsign | KAL07D |
|---|---|
| Flight time | 7h 14m |
| Altitude | 31000 |
| Route | EGOBA2H EGOBA Y697 LANAT Y51 SAMON Y142 GTC Y512 SOVMO/N0493F330 Y512 OATIS R580 OBOYD/N0481F350 R580 HAMND NEELL7 |
| Aircraft | B77L/H-SDE1E2E3FGHIJ2J3J4J5M1RWXY/LB1D1 |
Departure
| Time | 2026-05-06 12:49 |
|---|---|
| Airport | Incheon International Airport (RKSI) |
Arrival
| Time | 2026-05-06 20:03 |
|---|---|
| Airport | Ted Stevens Anchorage International Airport (PANC) |
| Time | Latitude | Longitude | Altitude | Speed | Heading |
|---|---|---|---|---|---|
| 2026-05-06 12:49 | 37.42267 | 126.45695 | 1794 ft | 189 kts | 154° |
| 2026-05-06 12:49 | 37.41094 | 126.46580 | 2009 ft | 206 kts | 155° |
| 2026-05-06 12:50 | 37.39798 | 126.47533 | 2200 ft | 226 kts | 155° |
| 2026-05-06 12:50 | 37.38373 | 126.48534 | 2418 ft | 241 kts | 163° |
| 2026-05-06 12:50 | 37.36750 | 126.49108 | 2861 ft | 245 kts | 171° |
| 2026-05-06 12:50 | 37.35074 | 126.49631 | 3504 ft | 250 kts | 169° |
| 2026-05-06 12:51 | 37.33385 | 126.50196 | 4171 ft | 253 kts | 169° |
| 2026-05-06 12:51 | 37.31670 | 126.50775 | 4794 ft | 258 kts | 168° |
| 2026-05-06 12:51 | 37.29935 | 126.51410 | 5365 ft | 262 kts | 159° |
| 2026-05-06 12:51 | 37.28459 | 126.52812 | 5836 ft | 276 kts | 128° |
| 2026-05-06 12:52 | 37.27707 | 126.55041 | 6443 ft | 282 kts | 101° |
| 2026-05-06 12:52 | 37.27504 | 126.57482 | 6929 ft | 288 kts | 97° |
| 2026-05-06 12:52 | 37.27318 | 126.60013 | 7452 ft | 293 kts | 97° |
| 2026-05-06 12:52 | 37.27126 | 126.62578 | 8037 ft | 297 kts | 96° |
| 2026-05-06 12:53 | 37.27107 | 126.65195 | 8587 ft | 302 kts | 87° |
| 2026-05-06 12:53 | 37.27269 | 126.67848 | 9145 ft | 306 kts | 85° |
| 2026-05-06 12:53 | 37.27458 | 126.70498 | 9704 ft | 310 kts | 84° |
| 2026-05-06 12:53 | 37.27643 | 126.73220 | 10069 ft | 315 kts | 85° |
| 2026-05-06 12:54 | 37.27816 | 126.75982 | 10019 ft | 316 kts | 85° |
| 2026-05-06 12:54 | 37.27976 | 126.78740 | 10030 ft | 315 kts | 85° |
| 2026-05-06 12:54 | 37.28128 | 126.81483 | 10029 ft | 314 kts | 86° |
| 2026-05-06 12:54 | 37.28273 | 126.84182 | 10034 ft | 314 kts | 86° |
| 2026-05-06 12:55 | 37.28418 | 126.86913 | 10039 ft | 314 kts | 86° |
| 2026-05-06 12:55 | 37.28567 | 126.89659 | 10057 ft | 314 kts | 84° |
| 2026-05-06 12:55 | 37.28793 | 126.92385 | 10038 ft | 314 kts | 83° |
| 2026-05-06 12:55 | 37.29054 | 126.95109 | 10034 ft | 314 kts | 82° |
| 2026-05-06 12:56 | 37.29315 | 126.97832 | 10048 ft | 314 kts | 83° |
| 2026-05-06 12:56 | 37.29572 | 127.00564 | 10044 ft | 314 kts | 83° |
| 2026-05-06 12:56 | 37.29828 | 127.03338 | 10119 ft | 327 kts | 83° |
| 2026-05-06 12:56 | 37.30094 | 127.06260 | 10270 ft | 347 kts | 83° |
| 2026-05-06 12:57 | 37.30368 | 127.09306 | 10429 ft | 366 kts | 83° |
| 2026-05-06 12:57 | 37.30681 | 127.12562 | 10571 ft | 384 kts | 79° |
| 2026-05-06 12:57 | 37.31389 | 127.15861 | 10858 ft | 397 kts | 70° |
| 2026-05-06 12:57 | 37.32340 | 127.19158 | 11361 ft | 405 kts | 69° |
| 2026-05-06 12:58 | 37.33331 | 127.22491 | 11937 ft | 406 kts | 64° |
| 2026-05-06 12:58 | 37.34859 | 127.25478 | 12408 ft | 409 kts | 44° |
| 2026-05-06 12:58 | 37.37048 | 127.27734 | 13005 ft | 407 kts | 31° |
| 2026-05-06 12:58 | 37.39423 | 127.29736 | 13539 ft | 415 kts | 30° |
| 2026-05-06 12:59 | 37.41825 | 127.31796 | 14122 ft | 420 kts | 31° |
| 2026-05-06 12:59 | 37.44221 | 127.33903 | 14734 ft | 423 kts | 31° |
| 2026-05-06 12:59 | 37.46606 | 127.36093 | 15298 ft | 425 kts | 38° |
| 2026-05-06 12:59 | 37.48525 | 127.38989 | 15683 ft | 439 kts | 59° |
| 2026-05-06 13:00 | 37.49613 | 127.42595 | 16255 ft | 442 kts | 77° |
| 2026-05-06 13:00 | 37.50195 | 127.46403 | 16751 ft | 447 kts | 79° |
| 2026-05-06 13:00 | 37.50766 | 127.50290 | 17251 ft | 453 kts | 79° |
| 2026-05-06 13:00 | 37.51354 | 127.54187 | 17846 ft | 455 kts | 79° |
| 2026-05-06 13:01 | 37.51968 | 127.58113 | 18438 ft | 458 kts | 78° |
| 2026-05-06 13:01 | 37.52601 | 127.62065 | 18918 ft | 462 kts | 78° |
| 2026-05-06 13:01 | 37.53243 | 127.66053 | 19385 ft | 466 kts | 78° |
| 2026-05-06 13:01 | 37.53887 | 127.70069 | 19833 ft | 470 kts | 78° |
| 2026-05-06 13:02 | 37.54530 | 127.74116 | 20354 ft | 472 kts | 78° |
| 2026-05-06 13:02 | 37.55172 | 127.78178 | 20883 ft | 474 kts | 78° |
| 2026-05-06 13:02 | 37.55818 | 127.82270 | 21317 ft | 479 kts | 78° |
| 2026-05-06 13:02 | 37.56470 | 127.86406 | 21711 ft | 483 kts | 78° |
| 2026-05-06 13:03 | 37.57125 | 127.90575 | 22149 ft | 487 kts | 78° |
| 2026-05-06 13:03 | 37.57781 | 127.94764 | 22571 ft | 490 kts | 78° |
| 2026-05-06 13:03 | 37.58441 | 127.98981 | 23108 ft | 490 kts | 78° |
| 2026-05-06 13:03 | 37.59077 | 128.03058 | 23562 ft | 493 kts | 78° |
| 2026-05-06 13:04 | 37.59741 | 128.07315 | 23892 ft | 497 kts | 78° |
| 2026-05-06 13:04 | 37.60408 | 128.11610 | 24211 ft | 501 kts | 78° |
| 2026-05-06 13:04 | 37.61080 | 128.15940 | 24530 ft | 505 kts | 78° |
| 2026-05-06 13:04 | 37.61756 | 128.20297 | 24910 ft | 508 kts | 78° |
| 2026-05-06 13:05 | 37.62434 | 128.24675 | 25303 ft | 510 kts | 78° |
| 2026-05-06 13:05 | 37.63115 | 128.29077 | 25655 ft | 513 kts | 78° |
| 2026-05-06 13:05 | 37.63800 | 128.33510 | 25974 ft | 516 kts | 78° |
| 2026-05-06 13:05 | 37.64477 | 128.37908 | 26335 ft | 519 kts | 78° |
| 2026-05-06 13:06 | 37.65163 | 128.42398 | 26628 ft | 523 kts | 78° |
| 2026-05-06 13:06 | 37.65854 | 128.46925 | 26928 ft | 527 kts | 78° |
| 2026-05-06 13:06 | 37.66549 | 128.51479 | 27266 ft | 530 kts | 79° |
| 2026-05-06 13:06 | 37.67247 | 128.56068 | 27548 ft | 535 kts | 79° |
| 2026-05-06 13:07 | 37.67945 | 128.60685 | 27832 ft | 538 kts | 79° |
| 2026-05-06 13:07 | 37.68633 | 128.65343 | 28160 ft | 541 kts | 79° |
| 2026-05-06 13:07 | 37.69169 | 128.70041 | 28388 ft | 543 kts | 88° |
| 2026-05-06 13:07 | 37.68957 | 128.74805 | 28590 ft | 545 kts | 102° |
| 2026-05-06 13:08 | 37.68008 | 128.79430 | 28882 ft | 544 kts | 113° |
| 2026-05-06 13:08 | 37.66392 | 128.83709 | 29126 ft | 537 kts | 125° |
| 2026-05-06 13:08 | 37.64396 | 128.87710 | 29356 ft | 540 kts | 126° |
| 2026-05-06 13:08 | 37.62371 | 128.91722 | 29573 ft | 544 kts | 126° |
| 2026-05-06 13:09 | 37.60355 | 128.95769 | 29851 ft | 545 kts | 125° |
| 2026-05-06 13:09 | 37.58363 | 128.99836 | 30263 ft | 544 kts | 125° |
| 2026-05-06 13:09 | 37.56457 | 129.03781 | 30599 ft | 544 kts | 124° |
| 2026-05-06 13:09 | 37.54497 | 129.07859 | 30888 ft | 544 kts | 124° |
| 2026-05-06 13:10 | 37.52530 | 129.11956 | 30953 ft | 549 kts | 124° |
| 2026-05-06 13:10 | 37.48580 | 129.20153 | 30992 ft | 544 kts | 124° |
| 2026-05-06 13:11 | 37.44662 | 129.28248 | 30998 ft | 541 kts | 124° |
| 2026-05-06 13:11 | 37.40745 | 129.36323 | 30986 ft | 540 kts | 124° |
| 2026-05-06 13:12 | 37.36833 | 129.44392 | 30999 ft | 540 kts | 124° |
| 2026-05-06 13:12 | 37.32917 | 129.52451 | 30995 ft | 541 kts | 124° |
| 2026-05-06 13:13 | 37.28988 | 129.60513 | 30988 ft | 541 kts | 124° |
| 2026-05-06 13:13 | 37.25053 | 129.68570 | 30994 ft | 541 kts | 124° |
| 2026-05-06 13:14 | 37.21111 | 129.76623 | 30995 ft | 542 kts | 124° |
| 2026-05-06 13:14 | 37.17161 | 129.84671 | 30991 ft | 541 kts | 124° |
| 2026-05-06 13:15 | 37.13871 | 129.91344 | 30998 ft | 541 kts | 124° |
| 2026-05-06 13:15 | 37.09906 | 129.99348 | 31000 ft | 541 kts | 124° |
| 2026-05-06 13:16 | 37.05995 | 130.07223 | 30997 ft | 540 kts | 124° |
| 2026-05-06 13:16 | 37.02026 | 130.15209 | 30996 ft | 540 kts | 123° |
| 2026-05-06 13:17 | 36.98063 | 130.23170 | 31005 ft | 539 kts | 124° |
| 2026-05-06 13:17 | 36.94097 | 130.31104 | 31006 ft | 537 kts | 123° |
| 2026-05-06 13:18 | 36.90137 | 130.39014 | 31013 ft | 536 kts | 123° |
| 2026-05-06 13:18 | 36.86177 | 130.46907 | 31009 ft | 536 kts | 123° |
| 2026-05-06 13:19 | 36.82219 | 130.54774 | 31011 ft | 535 kts | 123° |
| 2026-05-06 13:19 | 36.78260 | 130.62631 | 31020 ft | 535 kts | 123° |
| 2026-05-06 13:20 | 36.74295 | 130.70477 | 31022 ft | 535 kts | 123° |
| 2026-05-06 13:20 | 36.70322 | 130.78313 | 31020 ft | 535 kts | 123° |
| 2026-05-06 13:21 | 36.66343 | 130.86143 | 31022 ft | 535 kts | 123° |
| 2026-05-06 13:21 | 36.62360 | 130.93968 | 31025 ft | 535 kts | 123° |
| 2026-05-06 13:22 | 36.58437 | 131.01659 | 31035 ft | 534 kts | 123° |
| 2026-05-06 13:22 | 36.54475 | 131.09407 | 31034 ft | 534 kts | 123° |
| 2026-05-06 13:23 | 36.50456 | 131.17246 | 31025 ft | 534 kts | 123° |
| 2026-05-06 13:23 | 36.46497 | 131.24957 | 31038 ft | 533 kts | 123° |
| 2026-05-06 13:24 | 36.42506 | 131.32714 | 31042 ft | 533 kts | 123° |
| 2026-05-06 13:24 | 36.38853 | 131.40684 | 31036 ft | 531 kts | 111° |
| 2026-05-06 13:25 | 36.36995 | 131.49518 | 31044 ft | 529 kts | 95° |
| 2026-05-06 13:25 | 36.36682 | 131.58611 | 31037 ft | 527 kts | 89° |
| 2026-05-06 13:26 | 36.36500 | 131.67709 | 31057 ft | 528 kts | 90° |
| 2026-05-06 13:26 | 36.36255 | 131.76817 | 31061 ft | 529 kts | 90° |
| 2026-05-06 13:27 | 36.35959 | 131.85933 | 31051 ft | 529 kts | 91° |
| 2026-05-06 13:27 | 36.35639 | 131.95045 | 31057 ft | 529 kts | 91° |
| 2026-05-06 13:28 | 36.35329 | 132.04025 | 31056 ft | 528 kts | 90° |
| 2026-05-06 13:28 | 36.35015 | 132.13127 | 31057 ft | 528 kts | 91° |
| 2026-05-06 13:29 | 36.34694 | 132.22211 | 31066 ft | 527 kts | 91° |
| 2026-05-06 13:29 | 36.34369 | 132.31226 | 31062 ft | 526 kts | 91° |
| 2026-05-06 13:30 | 36.34033 | 132.40296 | 31063 ft | 526 kts | 91° |
| 2026-05-06 13:30 | 36.33691 | 132.49357 | 31068 ft | 526 kts | 91° |
| 2026-05-06 13:31 | 36.33343 | 132.58399 | 31068 ft | 525 kts | 91° |
| 2026-05-06 13:31 | 36.32988 | 132.67442 | 31083 ft | 524 kts | 91° |
| 2026-05-06 13:32 | 36.32628 | 132.76467 | 31072 ft | 524 kts | 91° |
| 2026-05-06 13:32 | 36.32260 | 132.85483 | 31069 ft | 523 kts | 91° |
| 2026-05-06 13:33 | 36.31886 | 132.94491 | 31074 ft | 523 kts | 91° |
| 2026-05-06 13:33 | 36.31512 | 133.03361 | 31072 ft | 523 kts | 91° |
| 2026-05-06 13:34 | 36.31127 | 133.12330 | 31010 ft | 523 kts | 91° |
| 2026-05-06 13:34 | 36.30732 | 133.21340 | 31067 ft | 524 kts | 91° |
| 2026-05-06 13:35 | 36.30330 | 133.30371 | 31067 ft | 526 kts | 91° |
| 2026-05-06 13:35 | 36.29921 | 133.39454 | 31077 ft | 527 kts | 91° |
| 2026-05-06 13:36 | 36.29507 | 133.48468 | 31070 ft | 526 kts | 91° |
| 2026-05-06 13:36 | 36.29083 | 133.57520 | 31079 ft | 525 kts | 91° |
| 2026-05-06 13:37 | 36.28656 | 133.66560 | 31070 ft | 524 kts | 91° |
| 2026-05-06 13:37 | 36.28224 | 133.75548 | 31080 ft | 522 kts | 91° |
| 2026-05-06 13:38 | 36.27768 | 133.84540 | 31073 ft | 521 kts | 92° |
| 2026-05-06 13:38 | 36.27300 | 133.93503 | 31082 ft | 520 kts | 92° |
| 2026-05-06 13:39 | 36.26842 | 134.02271 | 31073 ft | 520 kts | 92° |
| 2026-05-06 13:39 | 36.26369 | 134.11215 | 31083 ft | 520 kts | 92° |
| 2026-05-06 13:40 | 36.25900 | 134.20190 | 31084 ft | 521 kts | 92° |
| 2026-05-06 13:40 | 36.25432 | 134.29154 | 31088 ft | 522 kts | 92° |
| 2026-05-06 13:41 | 36.24957 | 134.38135 | 31086 ft | 522 kts | 92° |
| 2026-05-06 13:41 | 36.24769 | 134.47051 | 31085 ft | 518 kts | 82° |
| 2026-05-06 13:42 | 36.26388 | 134.55687 | 31094 ft | 512 kts | 66° |
| 2026-05-06 13:42 | 36.29453 | 134.63618 | 31091 ft | 509 kts | 60° |
| 2026-05-06 13:43 | 36.32683 | 134.71485 | 31106 ft | 514 kts | 60° |
| 2026-05-06 13:43 | 36.35860 | 134.79370 | 31086 ft | 510 kts | 60° |
| 2026-05-06 13:44 | 36.38972 | 134.87216 | 31084 ft | 508 kts | 61° |
| 2026-05-06 13:44 | 36.42079 | 134.95094 | 31096 ft | 508 kts | 61° |
| 2026-05-06 13:45 | 36.45144 | 135.02880 | 31091 ft | 509 kts | 61° |
| 2026-05-06 13:45 | 36.49809 | 135.14755 | 31102 ft | 511 kts | 61° |
| 2026-05-06 13:46 | 36.52905 | 135.22659 | 31095 ft | 512 kts | 61° |
| 2026-05-06 13:46 | 36.56023 | 135.30638 | 31090 ft | 513 kts | 61° |
| 2026-05-06 13:47 | 36.59139 | 135.38637 | 31090 ft | 513 kts | 61° |
| 2026-05-06 13:47 | 36.62253 | 135.46648 | 31086 ft | 514 kts | 61° |
| 2026-05-06 13:48 | 36.65362 | 135.54668 | 31087 ft | 514 kts | 61° |
| 2026-05-06 13:48 | 36.68442 | 135.62631 | 31094 ft | 514 kts | 61° |
| 2026-05-06 13:49 | 36.71541 | 135.70665 | 31088 ft | 514 kts | 61° |
| 2026-05-06 13:49 | 36.74633 | 135.78703 | 31087 ft | 513 kts | 61° |
| 2026-05-06 13:50 | 36.77721 | 135.86749 | 31089 ft | 514 kts | 61° |
| 2026-05-06 13:50 | 36.80804 | 135.94803 | 31088 ft | 515 kts | 61° |
| 2026-05-06 13:51 | 36.84087 | 136.02501 | 31086 ft | 512 kts | 56° |
| 2026-05-06 13:51 | 36.87807 | 136.10081 | 31092 ft | 512 kts | 54° |
| 2026-05-06 13:52 | 36.91556 | 136.17659 | 31087 ft | 512 kts | 55° |
| 2026-05-06 13:52 | 36.95266 | 136.25282 | 31101 ft | 513 kts | 55° |
| 2026-05-06 13:53 | 36.98952 | 136.32943 | 31089 ft | 514 kts | 56° |
| 2026-05-06 13:53 | 37.02604 | 136.40566 | 31093 ft | 514 kts | 56° |
| 2026-05-06 13:54 | 37.06282 | 136.48258 | 31100 ft | 514 kts | 56° |
| 2026-05-06 13:54 | 37.09949 | 136.55939 | 31095 ft | 514 kts | 56° |
| 2026-05-06 13:55 | 37.13587 | 136.63575 | 31095 ft | 513 kts | 56° |
| 2026-05-06 13:55 | 37.17186 | 136.71311 | 31094 ft | 514 kts | 56° |
| 2026-05-06 13:56 | 37.20850 | 136.78995 | 31097 ft | 513 kts | 55° |
| 2026-05-06 13:56 | 37.24528 | 136.86670 | 31115 ft | 513 kts | 56° |
| 2026-05-06 13:57 | 37.28176 | 136.94364 | 31075 ft | 513 kts | 56° |
| 2026-05-06 13:57 | 37.31755 | 137.01963 | 31075 ft | 513 kts | 56° |
| 2026-05-06 13:58 | 37.35379 | 137.09684 | 31084 ft | 513 kts | 56° |
| 2026-05-06 13:58 | 37.38997 | 137.17407 | 31094 ft | 513 kts | 56° |
| 2026-05-06 13:59 | 37.42613 | 137.25139 | 31094 ft | 512 kts | 56° |
| 2026-05-06 13:59 | 37.46224 | 137.32879 | 31091 ft | 513 kts | 56° |
| 2026-05-06 14:00 | 37.49828 | 137.40622 | 31090 ft | 513 kts | 56° |
| 2026-05-06 14:00 | 37.53432 | 137.48385 | 31112 ft | 514 kts | 56° |
| 2026-05-06 14:01 | 37.57036 | 137.56164 | 31098 ft | 514 kts | 56° |
| 2026-05-06 14:01 | 37.60637 | 137.63956 | 31095 ft | 514 kts | 56° |
| 2026-05-06 14:02 | 37.64232 | 137.71757 | 31105 ft | 514 kts | 56° |
| 2026-05-06 14:02 | 37.67801 | 137.79517 | 31095 ft | 515 kts | 56° |
| 2026-05-06 14:03 | 37.71390 | 137.87339 | 31098 ft | 515 kts | 56° |
| 2026-05-06 14:03 | 37.74394 | 137.93901 | 31107 ft | 515 kts | 56° |
| 2026-05-06 14:04 | 37.77918 | 138.01616 | 31099 ft | 515 kts | 56° |
| 2026-05-06 14:04 | 37.82073 | 138.10736 | 31100 ft | 515 kts | 56° |
| 2026-05-06 14:05 | 37.85064 | 138.17318 | 31093 ft | 515 kts | 56° |
| 2026-05-06 14:05 | 37.88623 | 138.25165 | 31101 ft | 515 kts | 56° |
| 2026-05-06 14:06 | 37.92157 | 138.32978 | 31100 ft | 515 kts | 56° |
| 2026-05-06 14:06 | 37.95713 | 138.40860 | 31100 ft | 515 kts | 56° |
| 2026-05-06 14:07 | 37.99284 | 138.48792 | 31103 ft | 515 kts | 57° |
| 2026-05-06 14:07 | 38.02800 | 138.56607 | 31136 ft | 514 kts | 57° |
| 2026-05-06 14:08 | 38.06331 | 138.64499 | 31106 ft | 514 kts | 57° |
| 2026-05-06 14:08 | 38.09858 | 138.72397 | 31100 ft | 514 kts | 57° |
| 2026-05-06 14:09 | 38.13382 | 138.80302 | 31107 ft | 514 kts | 57° |
| 2026-05-06 14:09 | 38.16901 | 138.88214 | 31101 ft | 515 kts | 57° |
| 2026-05-06 14:10 | 38.20421 | 138.96148 | 31100 ft | 515 kts | 57° |
| 2026-05-06 14:10 | 38.23881 | 139.03968 | 31112 ft | 516 kts | 57° |
| 2026-05-06 14:11 | 38.27399 | 139.11937 | 31110 ft | 517 kts | 57° |
| 2026-05-06 14:11 | 38.30915 | 139.19923 | 31097 ft | 517 kts | 57° |
| 2026-05-06 14:12 | 38.34430 | 139.27928 | 31102 ft | 518 kts | 57° |
| 2026-05-06 14:12 | 38.37944 | 139.35948 | 31105 ft | 519 kts | 57° |
| 2026-05-06 14:13 | 38.41457 | 139.43989 | 31133 ft | 519 kts | 57° |
| 2026-05-06 14:13 | 38.44973 | 139.52054 | 31121 ft | 521 kts | 58° |
| 2026-05-06 14:14 | 38.48490 | 139.60146 | 31108 ft | 522 kts | 58° |
| 2026-05-06 14:14 | 38.52007 | 139.68256 | 31129 ft | 522 kts | 58° |
| 2026-05-06 14:15 | 38.55533 | 139.76403 | 31487 ft | 524 kts | 58° |
| 2026-05-06 14:15 | 38.57288 | 139.80469 | 31874 ft | 522 kts | 58° |
| 2026-05-06 14:15 | 38.59032 | 139.84519 | 32212 ft | 521 kts | 58° |
| 2026-05-06 14:16 | 38.60779 | 139.88579 | 32499 ft | 521 kts | 58° |
| 2026-05-06 14:16 | 38.62527 | 139.92647 | 32726 ft | 523 kts | 58° |
| 2026-05-06 14:16 | 38.64283 | 139.96734 | 32952 ft | 524 kts | 58° |
| 2026-05-06 14:16 | 38.65986 | 140.00705 | 33065 ft | 526 kts | 58° |
| 2026-05-06 14:17 | 38.69500 | 140.08911 | 33130 ft | 525 kts | 58° |
| 2026-05-06 14:17 | 38.73001 | 140.17116 | 33138 ft | 526 kts | 58° |
| 2026-05-06 14:18 | 38.76507 | 140.25349 | 33125 ft | 528 kts | 58° |
| 2026-05-06 14:18 | 38.80021 | 140.33614 | 33125 ft | 528 kts | 58° |
| 2026-05-06 14:19 | 38.83508 | 140.41846 | 33128 ft | 529 kts | 58° |
| 2026-05-06 14:19 | 38.87015 | 140.50147 | 33129 ft | 529 kts | 59° |
| 2026-05-06 14:20 | 38.90510 | 140.58452 | 33120 ft | 528 kts | 59° |
| 2026-05-06 14:20 | 38.93990 | 140.66737 | 33138 ft | 527 kts | 59° |
| 2026-05-06 14:21 | 38.97460 | 140.75026 | 33127 ft | 526 kts | 59° |
| 2026-05-06 14:21 | 39.00925 | 140.83288 | 33137 ft | 526 kts | 59° |
| 2026-05-06 14:22 | 39.04387 | 140.91596 | 33119 ft | 527 kts | 59° |
| 2026-05-06 14:22 | 39.07849 | 140.99922 | 33118 ft | 528 kts | 59° |
| 2026-05-06 14:23 | 39.11250 | 141.08128 | 33118 ft | 528 kts | 59° |
| 2026-05-06 14:23 | 39.14707 | 141.16487 | 33118 ft | 529 kts | 59° |
| 2026-05-06 14:24 | 39.18159 | 141.24859 | 33104 ft | 530 kts | 59° |
| 2026-05-06 14:24 | 39.21617 | 141.33266 | 33126 ft | 531 kts | 59° |
| 2026-05-06 14:25 | 39.25077 | 141.41702 | 33096 ft | 533 kts | 59° |
| 2026-05-06 14:25 | 39.28538 | 141.50162 | 33102 ft | 533 kts | 59° |
| 2026-05-06 14:26 | 39.31988 | 141.58611 | 33134 ft | 531 kts | 60° |
| 2026-05-06 14:26 | 39.35421 | 141.67051 | 33114 ft | 531 kts | 60° |
| 2026-05-06 14:27 | 39.38847 | 141.75509 | 33106 ft | 531 kts | 60° |
| 2026-05-06 14:27 | 39.42247 | 141.83919 | 33106 ft | 531 kts | 60° |
| 2026-05-06 14:28 | 39.45665 | 141.92390 | 33080 ft | 531 kts | 60° |
| 2026-05-06 14:28 | 39.49022 | 142.00726 | 33083 ft | 530 kts | 60° |
| 2026-05-06 14:29 | 39.52417 | 142.09198 | 33083 ft | 530 kts | 60° |
| 2026-05-06 14:29 | 39.55806 | 142.17656 | 33074 ft | 529 kts | 60° |
| 2026-05-06 14:30 | 39.59188 | 142.26128 | 33078 ft | 529 kts | 60° |
| 2026-05-06 14:30 | 39.62563 | 142.34614 | 33078 ft | 530 kts | 60° |
| 2026-05-06 14:31 | 39.65936 | 142.43117 | 33072 ft | 530 kts | 60° |
| 2026-05-06 14:31 | 39.69305 | 142.51634 | 33088 ft | 530 kts | 60° |
| 2026-05-06 14:32 | 39.72672 | 142.60167 | 33077 ft | 531 kts | 60° |
| 2026-05-06 14:32 | 39.76035 | 142.68717 | 33070 ft | 531 kts | 61° |
| 2026-05-06 14:33 | 39.79394 | 142.77278 | 33071 ft | 531 kts | 61° |
| 2026-05-06 14:33 | 39.82746 | 142.85847 | 33071 ft | 532 kts | 61° |
| 2026-05-06 14:34 | 39.86092 | 142.94426 | 33074 ft | 532 kts | 61° |
| 2026-05-06 14:34 | 39.89378 | 143.02873 | 33081 ft | 532 kts | 61° |
| 2026-05-06 14:35 | 39.92711 | 143.11468 | 33073 ft | 532 kts | 61° |
| 2026-05-06 14:35 | 39.96019 | 143.20023 | 33073 ft | 532 kts | 61° |
| 2026-05-06 14:36 | 39.99343 | 143.28643 | 33070 ft | 532 kts | 61° |
| 2026-05-06 14:36 | 40.02658 | 143.37263 | 33075 ft | 532 kts | 61° |
| 2026-05-06 14:37 | 40.05979 | 143.45926 | 33075 ft | 533 kts | 61° |
| 2026-05-06 14:37 | 40.09288 | 143.54583 | 33082 ft | 533 kts | 62° |
| 2026-05-06 14:38 | 40.12577 | 143.63212 | 33077 ft | 534 kts | 62° |
| 2026-05-06 14:38 | 40.15903 | 143.71960 | 33088 ft | 541 kts | 62° |
| 2026-05-06 14:39 | 40.19269 | 143.80841 | 33092 ft | 547 kts | 62° |
| 2026-05-06 14:39 | 40.22649 | 143.89787 | 33085 ft | 548 kts | 62° |
| 2026-05-06 14:40 | 40.26027 | 143.98760 | 33073 ft | 549 kts | 62° |
| 2026-05-06 14:40 | 40.29324 | 144.07544 | 33086 ft | 549 kts | 62° |
| 2026-05-06 14:41 | 40.32697 | 144.16553 | 33077 ft | 549 kts | 62° |
| 2026-05-06 14:41 | 40.36053 | 144.25546 | 33077 ft | 548 kts | 62° |
| 2026-05-06 14:42 | 40.39378 | 144.34484 | 33088 ft | 548 kts | 62° |
| 2026-05-06 14:42 | 40.42711 | 144.43469 | 33076 ft | 547 kts | 62° |
| 2026-05-06 14:43 | 40.46029 | 144.52444 | 33078 ft | 546 kts | 62° |
| 2026-05-06 14:43 | 40.49335 | 144.61410 | 33081 ft | 546 kts | 62° |
| 2026-05-06 14:44 | 40.52639 | 144.70402 | 33078 ft | 546 kts | 62° |
| 2026-05-06 14:45 | 40.57584 | 144.83909 | 33090 ft | 546 kts | 63° |
| 2026-05-06 14:45 | 40.60859 | 144.92890 | 33087 ft | 547 kts | 63° |
| 2026-05-06 14:46 | 40.64096 | 145.01794 | 33065 ft | 547 kts | 63° |
| 2026-05-06 14:46 | 40.67382 | 145.10860 | 33081 ft | 547 kts | 63° |
| 2026-05-06 14:47 | 40.70657 | 145.19925 | 33080 ft | 547 kts | 63° |
| 2026-05-06 14:47 | 40.73900 | 145.28932 | 33077 ft | 547 kts | 63° |
| 2026-05-06 14:48 | 40.77154 | 145.37995 | 33083 ft | 546 kts | 63° |
| 2026-05-06 14:48 | 40.80403 | 145.47073 | 33079 ft | 546 kts | 63° |
| 2026-05-06 14:49 | 40.83650 | 145.56176 | 33079 ft | 546 kts | 63° |
| 2026-05-06 14:49 | 40.86861 | 145.65206 | 33091 ft | 546 kts | 63° |
| 2026-05-06 14:50 | 40.90088 | 145.74308 | 33082 ft | 546 kts | 63° |
| 2026-05-06 14:50 | 40.93304 | 145.83412 | 33084 ft | 545 kts | 63° |
| 2026-05-06 14:51 | 40.96482 | 145.92433 | 33092 ft | 544 kts | 63° |
| 2026-05-06 14:51 | 40.99621 | 146.01375 | 33083 ft | 544 kts | 63° |
| 2026-05-06 14:52 | 41.02792 | 146.10434 | 33082 ft | 543 kts | 63° |
| 2026-05-06 14:52 | 41.05431 | 146.17997 | 33093 ft | 542 kts | 63° |
| 2026-05-06 14:53 | 41.08590 | 146.27074 | 33090 ft | 542 kts | 63° |
| 2026-05-06 14:53 | 41.11741 | 146.36161 | 33087 ft | 542 kts | 63° |
| 2026-05-06 14:54 | 41.14887 | 146.45260 | 33091 ft | 542 kts | 63° |
| 2026-05-06 14:54 | 41.18030 | 146.54381 | 33086 ft | 542 kts | 64° |
| 2026-05-06 14:55 | 41.21144 | 146.63448 | 33094 ft | 543 kts | 64° |
| 2026-05-06 14:55 | 41.24269 | 146.72576 | 33098 ft | 543 kts | 64° |
| 2026-05-06 14:56 | 41.27397 | 146.81740 | 33094 ft | 543 kts | 64° |
| 2026-05-06 14:56 | 41.30515 | 146.90908 | 33093 ft | 543 kts | 64° |
| 2026-05-06 14:57 | 41.33611 | 147.00042 | 33098 ft | 543 kts | 64° |
| 2026-05-06 14:57 | 41.36651 | 147.09036 | 33092 ft | 542 kts | 64° |
| 2026-05-06 14:58 | 41.39742 | 147.18215 | 33107 ft | 542 kts | 64° |
| 2026-05-06 14:58 | 41.42790 | 147.27290 | 33101 ft | 536 kts | 64° |
| 2026-05-06 14:59 | 41.45820 | 147.36356 | 33096 ft | 533 kts | 64° |
| 2026-05-06 14:59 | 41.48825 | 147.45365 | 33094 ft | 531 kts | 64° |
| 2026-05-06 15:00 | 41.51823 | 147.54379 | 33101 ft | 531 kts | 64° |
| 2026-05-06 15:00 | 41.54824 | 147.63434 | 33104 ft | 533 kts | 64° |
| 2026-05-06 15:01 | 41.57810 | 147.72475 | 33106 ft | 536 kts | 64° |
| 2026-05-06 15:01 | 41.60811 | 147.81592 | 33117 ft | 537 kts | 65° |
| 2026-05-06 15:02 | 41.63828 | 147.90787 | 33097 ft | 539 kts | 65° |
| 2026-05-06 15:02 | 41.66810 | 147.99914 | 33133 ft | 535 kts | 65° |
| 2026-05-06 15:03 | 41.69735 | 148.08905 | 33106 ft | 535 kts | 65° |
| 2026-05-06 15:03 | 41.72895 | 148.17933 | 33106 ft | 534 kts | 58° |
| 2026-05-06 15:04 | 41.77165 | 148.26050 | 33104 ft | 531 kts | 47° |
| 2026-05-06 15:04 | 41.82307 | 148.33103 | 33098 ft | 529 kts | 41° |
| 2026-05-06 15:05 | 41.87545 | 148.39919 | 33085 ft | 529 kts | 41° |
| 2026-05-06 15:05 | 41.92804 | 148.46820 | 33086 ft | 529 kts | 42° |
| 2026-05-06 15:06 | 41.98048 | 148.53790 | 33081 ft | 529 kts | 42° |
| 2026-05-06 15:06 | 42.03251 | 148.60761 | 33085 ft | 528 kts | 43° |
| 2026-05-06 15:07 | 42.08457 | 148.67738 | 33086 ft | 527 kts | 43° |
| 2026-05-06 15:07 | 42.13624 | 148.74668 | 33079 ft | 527 kts | 43° |
| 2026-05-06 15:08 | 42.18807 | 148.81636 | 33073 ft | 526 kts | 43° |
| 2026-05-06 15:08 | 42.23993 | 148.88625 | 33074 ft | 526 kts | 43° |
| 2026-05-06 15:09 | 42.29128 | 148.95627 | 33075 ft | 524 kts | 43° |
| 2026-05-06 15:09 | 42.34216 | 149.02514 | 33069 ft | 526 kts | 43° |
| 2026-05-06 15:10 | 42.39371 | 149.09479 | 33082 ft | 527 kts | 43° |
| 2026-05-06 15:10 | 42.44570 | 149.16534 | 33074 ft | 529 kts | 43° |
| 2026-05-06 15:11 | 42.49767 | 149.23622 | 33061 ft | 531 kts | 43° |
| 2026-05-06 15:11 | 42.54974 | 149.30750 | 33063 ft | 532 kts | 43° |
| 2026-05-06 15:12 | 42.60149 | 149.37850 | 33052 ft | 532 kts | 43° |
| 2026-05-06 15:12 | 42.65360 | 149.45016 | 33052 ft | 533 kts | 43° |
| 2026-05-06 15:13 | 42.70568 | 149.52196 | 33052 ft | 533 kts | 43° |
| 2026-05-06 15:13 | 42.75745 | 149.59351 | 33060 ft | 533 kts | 43° |
| 2026-05-06 15:14 | 42.80948 | 149.66560 | 33054 ft | 533 kts | 43° |
| 2026-05-06 15:14 | 42.86144 | 149.73778 | 33047 ft | 533 kts | 43° |
| 2026-05-06 15:15 | 42.91326 | 149.80995 | 33051 ft | 532 kts | 43° |
| 2026-05-06 15:15 | 42.96512 | 149.88237 | 33053 ft | 532 kts | 43° |
| 2026-05-06 15:16 | 43.01640 | 149.95415 | 33043 ft | 532 kts | 43° |
| 2026-05-06 15:16 | 43.06735 | 150.02566 | 33044 ft | 532 kts | 43° |
| 2026-05-06 15:17 | 43.11892 | 150.09821 | 33051 ft | 532 kts | 43° |
| 2026-05-06 15:17 | 43.17049 | 150.17095 | 33040 ft | 532 kts | 43° |
| 2026-05-06 15:18 | 43.22197 | 150.24377 | 33039 ft | 532 kts | 43° |
| 2026-05-06 15:18 | 43.27317 | 150.31636 | 33041 ft | 532 kts | 43° |
| 2026-05-06 15:19 | 43.32463 | 150.38951 | 33032 ft | 532 kts | 43° |
| 2026-05-06 15:19 | 43.37594 | 150.46264 | 33033 ft | 532 kts | 43° |
| 2026-05-06 15:20 | 43.42734 | 150.53610 | 33060 ft | 532 kts | 43° |
| 2026-05-06 15:20 | 43.47864 | 150.60960 | 33032 ft | 532 kts | 43° |
| 2026-05-06 15:21 | 43.52994 | 150.68330 | 33028 ft | 532 kts | 43° |
| 2026-05-06 15:21 | 43.58081 | 150.75657 | 33022 ft | 531 kts | 43° |
| 2026-05-06 15:22 | 43.63193 | 150.83038 | 33022 ft | 532 kts | 43° |
| 2026-05-06 15:22 | 43.68300 | 150.90431 | 33022 ft | 532 kts | 43° |
| 2026-05-06 15:23 | 43.73407 | 150.97846 | 33015 ft | 532 kts | 43° |
| 2026-05-06 15:23 | 43.78402 | 151.05115 | 33031 ft | 533 kts | 43° |
| 2026-05-06 15:24 | 43.83518 | 151.12581 | 33017 ft | 534 kts | 43° |
| 2026-05-06 15:24 | 43.88625 | 151.20053 | 33001 ft | 534 kts | 43° |
| 2026-05-06 15:25 | 43.93718 | 151.27498 | 33002 ft | 535 kts | 42° |
| 2026-05-06 15:25 | 43.98862 | 151.34976 | 32997 ft | 536 kts | 42° |
| 2026-05-06 15:26 | 44.03980 | 151.42515 | 33000 ft | 536 kts | 43° |
| 2026-05-06 15:26 | 44.09095 | 151.50101 | 33011 ft | 537 kts | 43° |
| 2026-05-06 15:27 | 44.14205 | 151.57692 | 33008 ft | 538 kts | 43° |
| 2026-05-06 15:27 | 44.19326 | 151.65309 | 33002 ft | 539 kts | 43° |
| 2026-05-06 15:28 | 44.24420 | 151.72903 | 33007 ft | 539 kts | 43° |
| 2026-05-06 15:28 | 44.29552 | 151.80575 | 32991 ft | 540 kts | 43° |
| 2026-05-06 15:29 | 44.34678 | 151.88261 | 32988 ft | 540 kts | 43° |
| 2026-05-06 15:29 | 44.39768 | 151.95914 | 32989 ft | 540 kts | 43° |
| 2026-05-06 15:30 | 44.44810 | 152.03516 | 32987 ft | 540 kts | 43° |
| 2026-05-06 15:30 | 44.49920 | 152.11239 | 32991 ft | 541 kts | 43° |
| 2026-05-06 15:31 | 44.55042 | 152.19004 | 32989 ft | 541 kts | 43° |
| 2026-05-06 15:31 | 44.60122 | 152.26726 | 32990 ft | 542 kts | 43° |
| 2026-05-06 15:32 | 44.67780 | 152.38408 | 32982 ft | 542 kts | 43° |
| 2026-05-06 15:32 | 44.72891 | 152.46232 | 32978 ft | 542 kts | 43° |
| 2026-05-06 15:33 | 44.77982 | 152.54047 | 32968 ft | 542 kts | 43° |
| 2026-05-06 15:33 | 44.83078 | 152.61891 | 33005 ft | 542 kts | 43° |
| 2026-05-06 15:34 | 44.88171 | 152.69753 | 32976 ft | 543 kts | 43° |
| 2026-05-06 15:34 | 44.93266 | 152.77641 | 32972 ft | 544 kts | 43° |
| 2026-05-06 15:35 | 44.98326 | 152.85497 | 32967 ft | 544 kts | 43° |
| 2026-05-06 15:35 | 45.03412 | 152.93417 | 32966 ft | 545 kts | 43° |
| 2026-05-06 15:36 | 45.08430 | 153.01251 | 32976 ft | 545 kts | 43° |
| 2026-05-06 15:36 | 45.13529 | 153.09236 | 32963 ft | 546 kts | 43° |
| 2026-05-06 15:37 | 45.18588 | 153.17179 | 32981 ft | 546 kts | 43° |
| 2026-05-06 15:37 | 45.23677 | 153.25194 | 32978 ft | 546 kts | 43° |
| 2026-05-06 15:38 | 45.28772 | 153.33242 | 32957 ft | 547 kts | 43° |
| 2026-05-06 15:38 | 45.33837 | 153.41265 | 32959 ft | 547 kts | 43° |
| 2026-05-06 15:39 | 45.38064 | 153.47980 | 32959 ft | 547 kts | 43° |
| 2026-05-06 15:39 | 45.43144 | 153.56071 | 32961 ft | 548 kts | 43° |
| 2026-05-06 15:40 | 45.49049 | 153.65505 | 32956 ft | 549 kts | 43° |
| 2026-05-06 15:40 | 45.53303 | 153.72320 | 32957 ft | 549 kts | 43° |
| 2026-05-06 15:41 | 45.58328 | 153.80455 | 32973 ft | 550 kts | 43° |
| 2026-05-06 15:41 | 45.63372 | 153.88694 | 32957 ft | 551 kts | 43° |
| 2026-05-06 15:42 | 45.68421 | 153.96967 | 32955 ft | 551 kts | 43° |
| 2026-05-06 15:42 | 45.73394 | 154.05128 | 32961 ft | 552 kts | 43° |
| 2026-05-06 15:43 | 45.78445 | 154.13437 | 32946 ft | 552 kts | 43° |
| 2026-05-06 15:43 | 45.83449 | 154.21692 | 32941 ft | 552 kts | 43° |
| 2026-05-06 15:44 | 45.88489 | 154.30034 | 32952 ft | 552 kts | 43° |
| 2026-05-06 15:44 | 45.93522 | 154.38391 | 32955 ft | 554 kts | 43° |
| 2026-05-06 15:45 | 45.98559 | 154.46776 | 32944 ft | 554 kts | 43° |
| 2026-05-06 15:45 | 46.03592 | 154.55180 | 32942 ft | 554 kts | 43° |
| 2026-05-06 15:46 | 46.08587 | 154.63549 | 32948 ft | 554 kts | 43° |
| 2026-05-06 15:46 | 46.13617 | 154.72001 | 32934 ft | 554 kts | 43° |
| 2026-05-06 15:47 | 46.18638 | 154.80464 | 32942 ft | 554 kts | 43° |
| 2026-05-06 15:47 | 46.23647 | 154.88934 | 32971 ft | 554 kts | 43° |
| 2026-05-06 15:48 | 46.28621 | 154.97368 | 32965 ft | 555 kts | 42° |
| 2026-05-06 15:48 | 46.33552 | 155.05754 | 32928 ft | 555 kts | 42° |
| 2026-05-06 15:49 | 46.38548 | 155.14280 | 32929 ft | 555 kts | 42° |
| 2026-05-06 15:49 | 46.43547 | 155.22833 | 32382 ft | 552 kts | 48° |
| 2026-05-06 15:50 | 46.46007 | 155.27053 | 33186 ft | 548 kts | 42° |
| 2026-05-06 15:50 | 46.48484 | 155.31304 | 33026 ft | 554 kts | 42° |
| 2026-05-06 15:50 | 46.53470 | 155.39888 | 32936 ft | 556 kts | 42° |
| 2026-05-06 15:51 | 46.58405 | 155.48424 | 32911 ft | 555 kts | 42° |
| 2026-05-06 15:51 | 46.63372 | 155.57037 | 32912 ft | 554 kts | 42° |
| 2026-05-06 15:52 | 46.68295 | 155.65596 | 32902 ft | 553 kts | 42° |
| 2026-05-06 15:52 | 46.73224 | 155.74189 | 32909 ft | 552 kts | 42° |
| 2026-05-06 15:53 | 46.78167 | 155.82835 | 32908 ft | 553 kts | 42° |
| 2026-05-06 15:53 | 46.83059 | 155.91417 | 32903 ft | 554 kts | 42° |
| 2026-05-06 15:54 | 46.87972 | 156.00066 | 32895 ft | 554 kts | 42° |
| 2026-05-06 15:54 | 46.92831 | 156.08645 | 32909 ft | 555 kts | 42° |
| 2026-05-06 15:55 | 46.97763 | 156.17382 | 32897 ft | 556 kts | 42° |
| 2026-05-06 15:55 | 47.02683 | 156.26130 | 32899 ft | 557 kts | 42° |
| 2026-05-06 15:56 | 47.07612 | 156.34915 | 32916 ft | 558 kts | 42° |
| 2026-05-06 15:56 | 47.12539 | 156.43726 | 32898 ft | 559 kts | 42° |
| 2026-05-06 15:57 | 47.17439 | 156.52517 | 32888 ft | 559 kts | 42° |
| 2026-05-06 15:57 | 47.22359 | 156.61377 | 32891 ft | 559 kts | 42° |
| 2026-05-06 15:58 | 47.27284 | 156.70271 | 32898 ft | 560 kts | 42° |
| 2026-05-06 15:58 | 47.32215 | 156.79203 | 32889 ft | 562 kts | 42° |
| 2026-05-06 15:59 | 47.37139 | 156.88156 | 32906 ft | 562 kts | 42° |
| 2026-05-06 15:59 | 47.42068 | 156.97146 | 32916 ft | 565 kts | 42° |
| 2026-05-06 16:00 | 47.46906 | 157.05994 | 32888 ft | 567 kts | 42° |
| 2026-05-06 16:00 | 47.51874 | 157.15116 | 32893 ft | 568 kts | 42° |
| 2026-05-06 16:01 | 47.56833 | 157.24253 | 32872 ft | 569 kts | 42° |
| 2026-05-06 16:01 | 47.61762 | 157.33364 | 32867 ft | 570 kts | 42° |
| 2026-05-06 16:02 | 47.66721 | 157.42562 | 32874 ft | 570 kts | 42° |
| 2026-05-06 16:02 | 47.71669 | 157.51770 | 32868 ft | 570 kts | 42° |
| 2026-05-06 16:03 | 47.76620 | 157.61013 | 32882 ft | 572 kts | 42° |
| 2026-05-06 16:03 | 47.81581 | 157.70306 | 32865 ft | 573 kts | 42° |
| 2026-05-06 16:04 | 47.86502 | 157.79557 | 32860 ft | 574 kts | 42° |
| 2026-05-06 16:04 | 47.91459 | 157.88911 | 32886 ft | 574 kts | 42° |
| 2026-05-06 16:05 | 47.96411 | 157.98283 | 32859 ft | 575 kts | 42° |
| 2026-05-06 16:05 | 48.01288 | 158.07546 | 32857 ft | 576 kts | 42° |
| 2026-05-06 16:06 | 48.06233 | 158.16973 | 32849 ft | 575 kts | 43° |
| 2026-05-06 16:06 | 48.11134 | 158.26345 | 32890 ft | 577 kts | 43° |
| 2026-05-06 16:07 | 48.16083 | 158.35838 | 32847 ft | 579 kts | 43° |
| 2026-05-06 16:07 | 48.21038 | 158.45383 | 32845 ft | 580 kts | 43° |
| 2026-05-06 16:08 | 48.25991 | 158.54959 | 32845 ft | 581 kts | 43° |
| 2026-05-06 16:08 | 48.30936 | 158.64552 | 32836 ft | 581 kts | 43° |
| 2026-05-06 16:09 | 48.35875 | 158.74167 | 32829 ft | 581 kts | 43° |
| 2026-05-06 16:09 | 48.40779 | 158.83748 | 32831 ft | 581 kts | 43° |
| 2026-05-06 16:10 | 48.45713 | 158.93422 | 32835 ft | 581 kts | 43° |
| 2026-05-06 16:10 | 48.50553 | 159.02940 | 32835 ft | 581 kts | 44° |
| 2026-05-06 16:11 | 48.55458 | 159.12631 | 32808 ft | 579 kts | 44° |
| 2026-05-06 16:11 | 48.60339 | 159.22308 | 32829 ft | 577 kts | 44° |
| 2026-05-06 16:12 | 48.65173 | 159.31921 | 32806 ft | 576 kts | 44° |
| 2026-05-06 16:12 | 48.70011 | 159.41576 | 32805 ft | 575 kts | 44° |
| 2026-05-06 16:13 | 48.74839 | 159.51245 | 32807 ft | 575 kts | 44° |
| 2026-05-06 16:13 | 48.79653 | 159.60923 | 32805 ft | 574 kts | 44° |
| 2026-05-06 16:14 | 48.84430 | 159.70558 | 32840 ft | 574 kts | 45° |
| 2026-05-06 16:14 | 48.89229 | 159.80277 | 32792 ft | 574 kts | 45° |
| 2026-05-06 16:15 | 48.94017 | 159.90011 | 32810 ft | 573 kts | 45° |
| 2026-05-06 16:15 | 48.98761 | 159.99685 | 32786 ft | 572 kts | 45° |
| 2026-05-06 16:16 | 49.03388 | 160.09339 | 32778 ft | 573 kts | 46° |
| 2026-05-06 16:16 | 49.07989 | 160.19262 | 32781 ft | 573 kts | 47° |
| 2026-05-06 16:17 | 49.12551 | 160.29138 | 32772 ft | 573 kts | 47° |
| 2026-05-06 16:17 | 49.17151 | 160.39076 | 32771 ft | 573 kts | 47° |
| 2026-05-06 16:18 | 49.21750 | 160.49020 | 32792 ft | 573 kts | 47° |
| 2026-05-06 16:18 | 49.26350 | 160.59008 | 32790 ft | 573 kts | 47° |
| 2026-05-06 16:19 | 49.30934 | 160.69008 | 32765 ft | 573 kts | 48° |
| 2026-05-06 16:19 | 49.35488 | 160.78979 | 32751 ft | 572 kts | 48° |
| 2026-05-06 16:20 | 49.40047 | 160.88995 | 32746 ft | 572 kts | 48° |
| 2026-05-06 16:20 | 49.44601 | 160.99040 | 32752 ft | 572 kts | 48° |
| 2026-05-06 16:21 | 49.49070 | 161.08933 | 32743 ft | 572 kts | 48° |
| 2026-05-06 16:21 | 49.53599 | 161.19015 | 32736 ft | 572 kts | 48° |
| 2026-05-06 16:22 | 49.58083 | 161.29105 | 32791 ft | 572 kts | 49° |
| 2026-05-06 16:22 | 49.62562 | 161.39232 | 32733 ft | 571 kts | 49° |
| 2026-05-06 16:23 | 49.67026 | 161.49362 | 32720 ft | 569 kts | 49° |
| 2026-05-06 16:23 | 49.71437 | 161.59397 | 32714 ft | 568 kts | 49° |
| 2026-05-06 16:24 | 49.75860 | 161.69494 | 32733 ft | 566 kts | 49° |
| 2026-05-06 16:24 | 49.80270 | 161.79600 | 32716 ft | 565 kts | 49° |
| 2026-05-06 16:25 | 49.84656 | 161.89693 | 32707 ft | 564 kts | 49° |
| 2026-05-06 16:25 | 49.89032 | 161.99798 | 32707 ft | 564 kts | 50° |
| 2026-05-06 16:26 | 49.93327 | 162.09755 | 32706 ft | 564 kts | 50° |
| 2026-05-06 16:26 | 49.97689 | 162.19906 | 32729 ft | 564 kts | 50° |
| 2026-05-06 16:27 | 50.02035 | 162.30061 | 32694 ft | 563 kts | 50° |
| 2026-05-06 16:27 | 50.06341 | 162.40162 | 32711 ft | 562 kts | 50° |
| 2026-05-06 16:28 | 50.09930 | 162.48609 | 32692 ft | 560 kts | 50° |
| 2026-05-06 16:28 | 50.14908 | 162.60370 | 32686 ft | 558 kts | 50° |
| 2026-05-06 16:29 | 50.18482 | 162.68847 | 32690 ft | 557 kts | 50° |
| 2026-05-06 16:29 | 50.22710 | 162.78905 | 32724 ft | 557 kts | 51° |
| 2026-05-06 16:30 | 50.26271 | 162.87405 | 32687 ft | 557 kts | 51° |
| 2026-05-06 16:30 | 50.31191 | 162.99207 | 32681 ft | 557 kts | 51° |
| 2026-05-06 16:31 | 50.35353 | 163.09228 | 32676 ft | 557 kts | 51° |
| 2026-05-06 16:31 | 50.39574 | 163.19429 | 32673 ft | 558 kts | 52° |
| 2026-05-06 16:32 | 50.43790 | 163.29657 | 32667 ft | 559 kts | 52° |
| 2026-05-06 16:32 | 50.47980 | 163.39864 | 32664 ft | 560 kts | 52° |
| 2026-05-06 16:33 | 50.52196 | 163.50176 | 32663 ft | 561 kts | 52° |
| 2026-05-06 16:34 | 50.58509 | 163.65692 | 32648 ft | 561 kts | 52° |
| 2026-05-06 16:34 | 50.62685 | 163.76005 | 32648 ft | 561 kts | 52° |
| 2026-05-06 16:35 | 50.66872 | 163.86390 | 32645 ft | 561 kts | 52° |
| 2026-05-06 16:35 | 50.71049 | 163.96817 | 32675 ft | 559 kts | 53° |
| 2026-05-06 16:36 | 50.75094 | 164.06945 | 32634 ft | 549 kts | 53° |
| 2026-05-06 16:36 | 50.79172 | 164.17166 | 32640 ft | 550 kts | 53° |
| 2026-05-06 16:37 | 50.83224 | 164.27360 | 32630 ft | 551 kts | 53° |
| 2026-05-06 16:37 | 50.87300 | 164.37659 | 32641 ft | 551 kts | 54° |
| 2026-05-06 16:38 | 50.91361 | 164.47963 | 32620 ft | 550 kts | 54° |
| 2026-05-06 16:38 | 50.95419 | 164.58241 | 32617 ft | 549 kts | 54° |
| 2026-05-06 16:39 | 50.99446 | 164.68455 | 32612 ft | 549 kts | 54° |
| 2026-05-06 16:39 | 51.03474 | 164.78710 | 32616 ft | 548 kts | 54° |
| 2026-05-06 16:40 | 51.07490 | 164.88987 | 32624 ft | 546 kts | 55° |
| 2026-05-06 16:40 | 51.11487 | 164.99258 | 32602 ft | 545 kts | 55° |
| 2026-05-06 16:41 | 51.15398 | 165.09349 | 32595 ft | 544 kts | 55° |
| 2026-05-06 16:41 | 51.19356 | 165.19595 | 32595 ft | 542 kts | 56° |
| 2026-05-06 16:42 | 51.23295 | 165.29835 | 32591 ft | 541 kts | 56° |
| 2026-05-06 16:42 | 51.27216 | 165.40068 | 32591 ft | 540 kts | 56° |
| 2026-05-06 16:43 | 51.31124 | 165.50303 | 32591 ft | 539 kts | 56° |
| 2026-05-06 16:43 | 51.35023 | 165.60553 | 32589 ft | 539 kts | 56° |
| 2026-05-06 16:44 | 51.38916 | 165.70819 | 32589 ft | 540 kts | 56° |
| 2026-05-06 16:44 | 51.42811 | 165.81098 | 32609 ft | 540 kts | 56° |
| 2026-05-06 16:45 | 51.46698 | 165.91385 | 32585 ft | 540 kts | 57° |
| 2026-05-06 16:45 | 51.50519 | 166.01538 | 32579 ft | 540 kts | 57° |
| 2026-05-06 16:46 | 51.54387 | 166.11862 | 32575 ft | 539 kts | 57° |
| 2026-05-06 16:46 | 51.58243 | 166.22197 | 32569 ft | 539 kts | 57° |
| 2026-05-06 16:47 | 51.62090 | 166.32550 | 32567 ft | 539 kts | 57° |
| 2026-05-06 16:47 | 51.65926 | 166.42912 | 32571 ft | 539 kts | 57° |
| 2026-05-06 16:48 | 51.69748 | 166.53280 | 32565 ft | 538 kts | 57° |
| 2026-05-06 16:48 | 51.73535 | 166.63599 | 32561 ft | 538 kts | 57° |
| 2026-05-06 16:49 | 51.77338 | 166.73999 | 32561 ft | 538 kts | 57° |
| 2026-05-06 16:49 | 51.81131 | 166.84414 | 32567 ft | 537 kts | 58° |
| 2026-05-06 16:50 | 51.84909 | 166.94831 | 32551 ft | 536 kts | 58° |
| 2026-05-06 16:50 | 51.88611 | 167.05085 | 32554 ft | 535 kts | 58° |
| 2026-05-06 16:51 | 51.92357 | 167.15500 | 32554 ft | 535 kts | 58° |
| 2026-05-06 16:51 | 51.96088 | 167.25915 | 32557 ft | 534 kts | 58° |
| 2026-05-06 16:52 | 51.99808 | 167.36342 | 32543 ft | 534 kts | 59° |
| 2026-05-06 16:52 | 52.03515 | 167.46777 | 32546 ft | 534 kts | 59° |
| 2026-05-06 16:53 | 52.07215 | 167.57236 | 32549 ft | 534 kts | 59° |
| 2026-05-06 16:53 | 52.10909 | 167.67720 | 32551 ft | 534 kts | 59° |
| 2026-05-06 16:54 | 52.14593 | 167.78221 | 32553 ft | 534 kts | 59° |
| 2026-05-06 16:54 | 52.18266 | 167.88734 | 32544 ft | 535 kts | 59° |
| 2026-05-06 16:55 | 52.21935 | 167.99279 | 32543 ft | 535 kts | 59° |
| 2026-05-06 16:55 | 52.25535 | 168.09671 | 32543 ft | 535 kts | 59° |
| 2026-05-06 16:56 | 52.29184 | 168.20245 | 32544 ft | 534 kts | 60° |
| 2026-05-06 16:56 | 52.32820 | 168.30831 | 32543 ft | 534 kts | 60° |
| 2026-05-06 16:57 | 52.36447 | 168.41434 | 32543 ft | 534 kts | 60° |
| 2026-05-06 16:57 | 52.40065 | 168.52054 | 32547 ft | 534 kts | 60° |
| 2026-05-06 16:58 | 52.43668 | 168.62675 | 32634 ft | 530 kts | 60° |
| 2026-05-06 16:58 | 52.47232 | 168.73227 | 32562 ft | 535 kts | 60° |
| 2026-05-06 16:59 | 52.50855 | 168.83997 | 32557 ft | 536 kts | 61° |
| 2026-05-06 16:59 | 52.54417 | 168.94640 | 32531 ft | 535 kts | 61° |
| 2026-05-06 17:00 | 52.57934 | 169.05186 | 32532 ft | 533 kts | 62° |
| 2026-05-06 17:00 | 52.61475 | 169.15859 | 32642 ft | 528 kts | 62° |
| 2026-05-06 17:01 | 52.64997 | 169.26514 | 32555 ft | 531 kts | 62° |
| 2026-05-06 17:01 | 52.68532 | 169.37249 | 32544 ft | 534 kts | 62° |
| 2026-05-06 17:02 | 52.72059 | 169.48014 | 32534 ft | 530 kts | 62° |
| 2026-05-06 17:02 | 52.75534 | 169.58663 | 32543 ft | 526 kts | 62° |
| 2026-05-06 17:03 | 52.79005 | 169.69347 | 32547 ft | 528 kts | 62° |
| 2026-05-06 17:03 | 52.82474 | 169.80074 | 32552 ft | 529 kts | 63° |
| 2026-05-06 17:04 | 52.85937 | 169.90821 | 32543 ft | 529 kts | 63° |
| 2026-05-06 17:04 | 52.89329 | 170.01391 | 32540 ft | 527 kts | 63° |
| 2026-05-06 17:05 | 52.92792 | 170.12079 | 32541 ft | 526 kts | 60° |
| 2026-05-06 17:05 | 52.97022 | 170.21944 | 32533 ft | 526 kts | 50° |
| 2026-05-06 17:06 | 53.01807 | 170.31080 | 32553 ft | 523 kts | 49° |
| 2026-05-06 17:06 | 53.06577 | 170.40123 | 32535 ft | 526 kts | 50° |
| 2026-05-06 17:07 | 53.11362 | 170.49362 | 32548 ft | 528 kts | 50° |
| 2026-05-06 17:07 | 53.16140 | 170.58666 | 32550 ft | 529 kts | 51° |
| 2026-05-06 17:08 | 53.20908 | 170.68013 | 32542 ft | 529 kts | 51° |
| 2026-05-06 17:08 | 53.25663 | 170.77362 | 32607 ft | 526 kts | 51° |
| 2026-05-06 17:09 | 53.30385 | 170.86666 | 32544 ft | 524 kts | 51° |
| 2026-05-06 17:09 | 53.35072 | 170.95945 | 32541 ft | 522 kts | 51° |
| 2026-05-06 17:10 | 53.39679 | 171.05083 | 32545 ft | 523 kts | 51° |
| 2026-05-06 17:10 | 53.44366 | 171.14432 | 32551 ft | 524 kts | 52° |
| 2026-05-06 17:11 | 53.49043 | 171.23797 | 32539 ft | 522 kts | 52° |
| 2026-05-06 17:11 | 53.53699 | 171.33143 | 32550 ft | 520 kts | 52° |
| 2026-05-06 17:12 | 53.58327 | 171.42472 | 32552 ft | 519 kts | 52° |
| 2026-05-06 17:12 | 53.62937 | 171.51803 | 32560 ft | 518 kts | 52° |
| 2026-05-06 17:13 | 53.67542 | 171.61157 | 32554 ft | 518 kts | 52° |
| 2026-05-06 17:13 | 53.72137 | 171.70527 | 32555 ft | 518 kts | 52° |
| 2026-05-06 17:14 | 53.76719 | 171.79905 | 32564 ft | 518 kts | 52° |
| 2026-05-06 17:14 | 53.81267 | 171.89247 | 32570 ft | 518 kts | 52° |
| 2026-05-06 17:15 | 53.85835 | 171.98667 | 32566 ft | 518 kts | 52° |
| 2026-05-06 17:15 | 53.90301 | 172.07912 | 32572 ft | 518 kts | 52° |
| 2026-05-06 17:16 | 53.94857 | 172.17378 | 32561 ft | 518 kts | 52° |
| 2026-05-06 17:16 | 53.99404 | 172.26861 | 32577 ft | 517 kts | 53° |
| 2026-05-06 17:17 | 54.03927 | 172.36336 | 32570 ft | 517 kts | 53° |
| 2026-05-06 17:17 | 54.08439 | 172.45844 | 32576 ft | 516 kts | 53° |
| 2026-05-06 17:18 | 54.12217 | 172.53810 | 32571 ft | 515 kts | 53° |
| 2026-05-06 17:18 | 54.16715 | 172.63316 | 32582 ft | 514 kts | 53° |
| 2026-05-06 17:19 | 54.21194 | 172.72830 | 32581 ft | 514 kts | 54° |
| 2026-05-06 17:19 | 54.25646 | 172.82376 | 32581 ft | 513 kts | 56° |
| 2026-05-06 17:20 | 54.29647 | 172.92412 | 32581 ft | 510 kts | 60° |
| 2026-05-06 17:20 | 54.33439 | 173.02463 | 32588 ft | 510 kts | 60° |
| 2026-05-06 17:21 | 54.37292 | 173.12659 | 32576 ft | 509 kts | 60° |
| 2026-05-06 17:21 | 54.41134 | 173.22757 | 32586 ft | 508 kts | 60° |
| 2026-05-06 17:22 | 54.45002 | 173.32916 | 32591 ft | 508 kts | 60° |
| 2026-05-06 17:22 | 54.48855 | 173.43077 | 32590 ft | 508 kts | 60° |
| 2026-05-06 17:23 | 54.52702 | 173.53269 | 32588 ft | 508 kts | 60° |
| 2026-05-06 17:23 | 54.56536 | 173.63472 | 32587 ft | 507 kts | 61° |
| 2026-05-06 17:24 | 54.60356 | 173.73681 | 32586 ft | 506 kts | 61° |
| 2026-05-06 17:24 | 54.64158 | 173.83882 | 32598 ft | 505 kts | 62° |
| 2026-05-06 17:25 | 54.67942 | 173.94081 | 32597 ft | 504 kts | 62° |
| 2026-05-06 17:25 | 54.71654 | 174.04126 | 32604 ft | 503 kts | 62° |
| 2026-05-06 17:26 | 54.75410 | 174.14328 | 32599 ft | 502 kts | 62° |
| 2026-05-06 17:26 | 54.79147 | 174.24525 | 32608 ft | 501 kts | 62° |
| 2026-05-06 17:27 | 54.82875 | 174.34739 | 32612 ft | 501 kts | 62° |
| 2026-05-06 17:27 | 54.86593 | 174.44967 | 32626 ft | 501 kts | 62° |
| 2026-05-06 17:28 | 54.90301 | 174.55209 | 32622 ft | 500 kts | 63° |
| 2026-05-06 17:28 | 54.93967 | 174.65373 | 32630 ft | 499 kts | 63° |
| 2026-05-06 17:29 | 54.97640 | 174.75603 | 32636 ft | 498 kts | 63° |
| 2026-05-06 17:29 | 55.01285 | 174.85801 | 32637 ft | 497 kts | 63° |
| 2026-05-06 17:30 | 55.04931 | 174.96043 | 32640 ft | 497 kts | 63° |
| 2026-05-06 17:30 | 55.08512 | 175.06142 | 32653 ft | 497 kts | 64° |
| 2026-05-06 17:31 | 55.12138 | 175.16412 | 32655 ft | 497 kts | 64° |
| 2026-05-06 17:31 | 55.15762 | 175.26718 | 32665 ft | 497 kts | 64° |
| 2026-05-06 17:32 | 55.19371 | 175.37024 | 32656 ft | 497 kts | 64° |
| 2026-05-06 17:32 | 55.22968 | 175.47338 | 32678 ft | 495 kts | 64° |
| 2026-05-06 17:33 | 55.26548 | 175.57650 | 32683 ft | 495 kts | 64° |
| 2026-05-06 17:33 | 55.30110 | 175.67951 | 32690 ft | 493 kts | 65° |
| 2026-05-06 17:34 | 55.33659 | 175.78262 | 32699 ft | 493 kts | 65° |
| 2026-05-06 17:34 | 55.37199 | 175.88589 | 32714 ft | 494 kts | 65° |
| 2026-05-06 17:35 | 55.40714 | 175.98888 | 32712 ft | 494 kts | 65° |
| 2026-05-06 17:35 | 55.44193 | 176.09121 | 32712 ft | 494 kts | 65° |
| 2026-05-06 17:36 | 55.49455 | 176.24676 | 32725 ft | 491 kts | 66° |
| 2026-05-06 17:36 | 55.52938 | 176.35034 | 32738 ft | 491 kts | 66° |
| 2026-05-06 17:37 | 55.56409 | 176.45401 | 32749 ft | 490 kts | 66° |
| 2026-05-06 17:37 | 55.59866 | 176.55771 | 32751 ft | 490 kts | 66° |
| 2026-05-06 17:38 | 55.63317 | 176.66164 | 32724 ft | 490 kts | 66° |
| 2026-05-06 17:38 | 55.66754 | 176.76560 | 32766 ft | 489 kts | 67° |
| 2026-05-06 17:39 | 55.70180 | 176.86970 | 32778 ft | 489 kts | 67° |
| 2026-05-06 17:39 | 55.73600 | 176.97405 | 32779 ft | 489 kts | 67° |
| 2026-05-06 17:40 | 55.76960 | 177.07698 | 32771 ft | 489 kts | 67° |
| 2026-05-06 17:40 | 55.80360 | 177.18160 | 32790 ft | 489 kts | 67° |
| 2026-05-06 17:41 | 55.83749 | 177.28633 | 32789 ft | 488 kts | 67° |
| 2026-05-06 17:41 | 55.87129 | 177.39124 | 32810 ft | 488 kts | 67° |
| 2026-05-06 17:42 | 55.90500 | 177.49634 | 32810 ft | 489 kts | 67° |
| 2026-05-06 17:42 | 55.93864 | 177.60165 | 32816 ft | 489 kts | 67° |
| 2026-05-06 17:43 | 55.97220 | 177.70714 | 32817 ft | 489 kts | 67° |
| 2026-05-06 17:43 | 56.00555 | 177.81244 | 32844 ft | 488 kts | 67° |
| 2026-05-06 17:44 | 56.03891 | 177.91814 | 32823 ft | 488 kts | 67° |
| 2026-05-06 17:44 | 56.07170 | 178.02239 | 32847 ft | 488 kts | 67° |
| 2026-05-06 17:45 | 56.10483 | 178.12868 | 32853 ft | 489 kts | 67° |
| 2026-05-06 17:45 | 56.13777 | 178.23534 | 32857 ft | 489 kts | 68° |
| 2026-05-06 17:46 | 56.17066 | 178.34208 | 32846 ft | 489 kts | 67° |
| 2026-05-06 17:46 | 56.20357 | 178.44914 | 32874 ft | 490 kts | 67° |
| 2026-05-06 17:47 | 56.23647 | 178.55655 | 32879 ft | 491 kts | 67° |
| 2026-05-06 17:47 | 56.26909 | 178.66351 | 32885 ft | 491 kts | 68° |
| 2026-05-06 17:48 | 56.30185 | 178.77145 | 32885 ft | 491 kts | 68° |
| 2026-05-06 17:48 | 56.33471 | 178.88024 | 32870 ft | 492 kts | 67° |
| 2026-05-06 17:49 | 56.36713 | 178.98807 | 32899 ft | 493 kts | 67° |
| 2026-05-06 17:49 | 56.39927 | 179.09546 | 32910 ft | 495 kts | 67° |
| 2026-05-06 17:50 | 56.43189 | 179.20492 | 32909 ft | 496 kts | 67° |
| 2026-05-06 17:50 | 56.46450 | 179.31487 | 32919 ft | 496 kts | 68° |
| 2026-05-06 17:51 | 56.49703 | 179.42506 | 32875 ft | 496 kts | 67° |
| 2026-05-06 17:51 | 56.52947 | 179.53547 | 32918 ft | 497 kts | 67° |
| 2026-05-06 17:52 | 56.56186 | 179.64627 | 32932 ft | 498 kts | 67° |
| 2026-05-06 17:52 | 56.59426 | 179.75760 | 32930 ft | 499 kts | 68° |
| 2026-05-06 17:53 | 56.62660 | 179.86928 | 32943 ft | 500 kts | 68° |
| 2026-05-06 17:53 | 56.65884 | 179.98111 | 32952 ft | 500 kts | 68° |
| 2026-05-06 17:54 | 56.68998 | -179.91041 | 32957 ft | 500 kts | 68° |
| 2026-05-06 17:54 | 56.72204 | -179.79805 | 32952 ft | 500 kts | 68° |
| 2026-05-06 17:55 | 56.75399 | -179.68556 | 32960 ft | 500 kts | 68° |
| 2026-05-06 17:55 | 56.78566 | -179.57352 | 32958 ft | 500 kts | 68° |
| 2026-05-06 17:56 | 56.81743 | -179.46063 | 32970 ft | 500 kts | 68° |
| 2026-05-06 17:56 | 56.84910 | -179.34751 | 32958 ft | 500 kts | 68° |
| 2026-05-06 17:57 | 56.88062 | -179.23439 | 32977 ft | 500 kts | 68° |
| 2026-05-06 17:57 | 56.91207 | -179.12093 | 32977 ft | 500 kts | 68° |
| 2026-05-06 17:58 | 56.94342 | -179.00727 | 32988 ft | 500 kts | 68° |
| 2026-05-06 17:58 | 56.97418 | -178.89521 | 32992 ft | 500 kts | 68° |
| 2026-05-06 17:59 | 57.00527 | -178.78138 | 32978 ft | 500 kts | 68° |
| 2026-05-06 17:59 | 57.03636 | -178.66698 | 32999 ft | 501 kts | 68° |
| 2026-05-06 18:00 | 57.06735 | -178.55237 | 33017 ft | 502 kts | 68° |
| 2026-05-06 18:00 | 57.09833 | -178.43725 | 33013 ft | 503 kts | 68° |
| 2026-05-06 18:01 | 57.12926 | -178.32166 | 33018 ft | 504 kts | 68° |
| 2026-05-06 18:01 | 57.16014 | -178.20574 | 32999 ft | 505 kts | 68° |
| 2026-05-06 18:02 | 57.19095 | -178.08946 | 33028 ft | 506 kts | 68° |
| 2026-05-06 18:02 | 57.22124 | -177.97455 | 33032 ft | 507 kts | 68° |
| 2026-05-06 18:03 | 57.25200 | -177.85724 | 33039 ft | 508 kts | 68° |
| 2026-05-06 18:03 | 57.28265 | -177.73977 | 33043 ft | 508 kts | 68° |
| 2026-05-06 18:04 | 57.31323 | -177.62195 | 33038 ft | 508 kts | 68° |
| 2026-05-06 18:04 | 57.34365 | -177.50414 | 33050 ft | 508 kts | 68° |
| 2026-05-06 18:05 | 57.36888 | -177.40593 | 33043 ft | 508 kts | 68° |
| 2026-05-06 18:05 | 57.39916 | -177.28752 | 33059 ft | 508 kts | 68° |
| 2026-05-06 18:06 | 57.42935 | -177.16881 | 33057 ft | 509 kts | 68° |
| 2026-05-06 18:06 | 57.45943 | -177.04995 | 33073 ft | 509 kts | 68° |
| 2026-05-06 18:07 | 57.48897 | -176.93254 | 33061 ft | 509 kts | 68° |
| 2026-05-06 18:07 | 57.51890 | -176.81305 | 33071 ft | 510 kts | 68° |
| 2026-05-06 18:08 | 57.54874 | -176.69334 | 33075 ft | 511 kts | 68° |
| 2026-05-06 18:08 | 57.57856 | -176.57313 | 33082 ft | 511 kts | 68° |
| 2026-05-06 18:09 | 57.60827 | -176.45265 | 33083 ft | 511 kts | 68° |
| 2026-05-06 18:09 | 57.63781 | -176.33197 | 33070 ft | 512 kts | 67° |
| 2026-05-06 18:10 | 57.66737 | -176.21079 | 33097 ft | 513 kts | 68° |
| 2026-05-06 18:10 | 57.69693 | -176.08935 | 33102 ft | 514 kts | 67° |
| 2026-05-06 18:11 | 57.72599 | -175.96942 | 33100 ft | 514 kts | 67° |
| 2026-05-06 18:11 | 57.75522 | -175.84814 | 33111 ft | 515 kts | 68° |
| 2026-05-06 18:12 | 57.78452 | -175.72587 | 33098 ft | 514 kts | 67° |
| 2026-05-06 18:12 | 57.81368 | -175.60343 | 33115 ft | 514 kts | 67° |
| 2026-05-06 18:13 | 57.84274 | -175.48072 | 33112 ft | 514 kts | 67° |
| 2026-05-06 18:13 | 57.87165 | -175.35792 | 33120 ft | 514 kts | 67° |
| 2026-05-06 18:14 | 57.90047 | -175.23487 | 33120 ft | 514 kts | 67° |
| 2026-05-06 18:14 | 57.92915 | -175.11168 | 33115 ft | 514 kts | 67° |
| 2026-05-06 18:15 | 57.95728 | -174.99018 | 33130 ft | 514 kts | 67° |
| 2026-05-06 18:15 | 57.98574 | -174.86655 | 33131 ft | 514 kts | 67° |
| 2026-05-06 18:16 | 58.01403 | -174.74290 | 33131 ft | 515 kts | 67° |
| 2026-05-06 18:16 | 58.04228 | -174.61877 | 33134 ft | 515 kts | 67° |
| 2026-05-06 18:17 | 58.07041 | -174.49439 | 33136 ft | 515 kts | 67° |
| 2026-05-06 18:17 | 58.09843 | -174.36976 | 33138 ft | 516 kts | 66° |
| 2026-05-06 18:18 | 58.12640 | -174.24469 | 33142 ft | 517 kts | 67° |
| 2026-05-06 18:18 | 58.15427 | -174.11934 | 33145 ft | 517 kts | 67° |
| 2026-05-06 18:19 | 58.18164 | -173.99550 | 33147 ft | 517 kts | 67° |
| 2026-05-06 18:19 | 58.20930 | -173.86964 | 33148 ft | 518 kts | 67° |
| 2026-05-06 18:20 | 58.23689 | -173.74344 | 33141 ft | 518 kts | 67° |
| 2026-05-06 18:20 | 58.26442 | -173.61692 | 33156 ft | 519 kts | 67° |
| 2026-05-06 18:21 | 58.29182 | -173.49104 | 33153 ft | 519 kts | 66° |
| 2026-05-06 18:21 | 58.31992 | -173.36453 | 33157 ft | 520 kts | 65° |
| 2026-05-06 18:22 | 58.34806 | -173.23784 | 33157 ft | 520 kts | 66° |
| 2026-05-06 18:22 | 58.37600 | -173.11098 | 33158 ft | 520 kts | 66° |
| 2026-05-06 18:23 | 58.40340 | -172.98563 | 33377 ft | 519 kts | 66° |
| 2026-05-06 18:23 | 58.41716 | -172.92234 | 33887 ft | 515 kts | 66° |
| 2026-05-06 18:23 | 58.43074 | -172.85961 | 34377 ft | 510 kts | 66° |
| 2026-05-06 18:24 | 58.44422 | -172.79720 | 34798 ft | 506 kts | 66° |
| 2026-05-06 18:24 | 58.45754 | -172.73530 | 35172 ft | 503 kts | 66° |
| 2026-05-06 18:24 | 58.47079 | -172.67358 | 35461 ft | 502 kts | 66° |
| 2026-05-06 18:24 | 58.48402 | -172.61187 | 35699 ft | 503 kts | 67° |
| 2026-05-06 18:25 | 58.49724 | -172.54997 | 35946 ft | 503 kts | 67° |
| 2026-05-06 18:25 | 58.51044 | -172.48806 | 36102 ft | 504 kts | 66° |
| 2026-05-06 18:25 | 58.53689 | -172.36334 | 36178 ft | 506 kts | 66° |
| 2026-05-06 18:26 | 58.56319 | -172.23854 | 36167 ft | 504 kts | 66° |
| 2026-05-06 18:26 | 58.58926 | -172.11411 | 36167 ft | 502 kts | 66° |
| 2026-05-06 18:27 | 58.61472 | -171.99185 | 36169 ft | 501 kts | 66° |
| 2026-05-06 18:27 | 58.64025 | -171.86853 | 36167 ft | 500 kts | 67° |
| 2026-05-06 18:28 | 58.66584 | -171.74422 | 36178 ft | 501 kts | 66° |
| 2026-05-06 18:28 | 58.69136 | -171.61951 | 36174 ft | 502 kts | 66° |
| 2026-05-06 18:29 | 58.71687 | -171.49417 | 36173 ft | 504 kts | 66° |
| 2026-05-06 18:29 | 58.74235 | -171.36842 | 36172 ft | 505 kts | 67° |
| 2026-05-06 18:30 | 58.76797 | -171.24254 | 36179 ft | 505 kts | 65° |
| 2026-05-06 18:30 | 58.79513 | -171.11776 | 36192 ft | 505 kts | 64° |
| 2026-05-06 18:31 | 58.82185 | -170.99471 | 36176 ft | 505 kts | 64° |
| 2026-05-06 18:31 | 58.84863 | -170.86943 | 36170 ft | 505 kts | 65° |
| 2026-05-06 18:32 | 58.87515 | -170.74400 | 36170 ft | 504 kts | 65° |
| 2026-05-06 18:32 | 58.90150 | -170.61872 | 36171 ft | 503 kts | 65° |
| 2026-05-06 18:33 | 58.92772 | -170.49332 | 36173 ft | 502 kts | 65° |
| 2026-05-06 18:33 | 58.95380 | -170.36787 | 36181 ft | 502 kts | 65° |
| 2026-05-06 18:34 | 58.97974 | -170.24230 | 36170 ft | 502 kts | 65° |
| 2026-05-06 18:34 | 59.00552 | -170.11678 | 36180 ft | 501 kts | 65° |
| 2026-05-06 18:35 | 59.03078 | -169.99298 | 36175 ft | 501 kts | 65° |
| 2026-05-06 18:35 | 59.05632 | -169.86705 | 36173 ft | 501 kts | 65° |
| 2026-05-06 18:36 | 59.08158 | -169.74171 | 36185 ft | 501 kts | 66° |
| 2026-05-06 18:36 | 59.10688 | -169.61539 | 36180 ft | 501 kts | 66° |
| 2026-05-06 18:37 | 59.12797 | -169.50949 | 36174 ft | 501 kts | 66° |
| 2026-05-06 18:37 | 59.15706 | -169.36243 | 36177 ft | 500 kts | 66° |
| 2026-05-06 18:38 | 59.18192 | -169.23590 | 36182 ft | 499 kts | 66° |
| 2026-05-06 18:38 | 59.20659 | -169.10956 | 36172 ft | 497 kts | 66° |
| 2026-05-06 18:39 | 59.23061 | -168.98570 | 36185 ft | 495 kts | 66° |
| 2026-05-06 18:40 | 59.26691 | -168.79708 | 36180 ft | 494 kts | 67° |
| 2026-05-06 18:40 | 59.29092 | -168.67131 | 36183 ft | 493 kts | 67° |
| 2026-05-06 18:41 | 59.31476 | -168.54564 | 36181 ft | 493 kts | 67° |
| 2026-05-06 18:41 | 59.33850 | -168.41970 | 36175 ft | 493 kts | 67° |
| 2026-05-06 18:42 | 59.36213 | -168.29351 | 36209 ft | 494 kts | 67° |
| 2026-05-06 18:42 | 59.38569 | -168.16686 | 36178 ft | 495 kts | 67° |
| 2026-05-06 18:43 | 59.40916 | -168.03991 | 36171 ft | 495 kts | 68° |
| 2026-05-06 18:43 | 59.43213 | -167.91479 | 36171 ft | 495 kts | 68° |
| 2026-05-06 18:44 | 59.45537 | -167.78736 | 36170 ft | 495 kts | 68° |
| 2026-05-06 18:44 | 59.47851 | -167.65975 | 36169 ft | 495 kts | 68° |
| 2026-05-06 18:45 | 59.50154 | -167.53192 | 36175 ft | 496 kts | 68° |
| 2026-05-06 18:45 | 59.52461 | -167.40390 | 36169 ft | 496 kts | 68° |
| 2026-05-06 18:46 | 59.54787 | -167.27600 | 36169 ft | 496 kts | 68° |
| 2026-05-06 18:46 | 59.57111 | -167.14771 | 36173 ft | 497 kts | 68° |
| 2026-05-06 18:47 | 59.59405 | -167.02006 | 36169 ft | 497 kts | 68° |
| 2026-05-06 18:47 | 59.61662 | -166.89344 | 36168 ft | 496 kts | 68° |
| 2026-05-06 18:48 | 59.63939 | -166.76477 | 36162 ft | 496 kts | 68° |
| 2026-05-06 18:48 | 59.66203 | -166.63601 | 36162 ft | 496 kts | 68° |
| 2026-05-06 18:49 | 59.68454 | -166.50705 | 36165 ft | 496 kts | 68° |
| 2026-05-06 18:49 | 59.70690 | -166.37806 | 36160 ft | 496 kts | 68° |
| 2026-05-06 18:50 | 59.72896 | -166.24994 | 36162 ft | 496 kts | 69° |
| 2026-05-06 18:50 | 59.75132 | -166.11915 | 36153 ft | 497 kts | 69° |
| 2026-05-06 18:51 | 59.77304 | -165.99119 | 36153 ft | 497 kts | 69° |
| 2026-05-06 18:51 | 59.79494 | -165.86128 | 36164 ft | 497 kts | 69° |
| 2026-05-06 18:52 | 59.81672 | -165.73107 | 36154 ft | 497 kts | 69° |
| 2026-05-06 18:52 | 59.83838 | -165.60069 | 36156 ft | 497 kts | 69° |
| 2026-05-06 18:53 | 59.85992 | -165.47009 | 36170 ft | 497 kts | 69° |
| 2026-05-06 18:53 | 59.88131 | -165.33945 | 36161 ft | 497 kts | 69° |
| 2026-05-06 18:54 | 59.90261 | -165.20843 | 36157 ft | 497 kts | 70° |
| 2026-05-06 18:54 | 59.92020 | -165.09943 | 36178 ft | 498 kts | 70° |
| 2026-05-06 18:55 | 59.94100 | -164.96975 | 36166 ft | 498 kts | 70° |
| 2026-05-06 18:55 | 59.96198 | -164.83794 | 36159 ft | 499 kts | 70° |
| 2026-05-06 18:56 | 59.98284 | -164.70584 | 36170 ft | 499 kts | 70° |
| 2026-05-06 18:56 | 60.00353 | -164.57382 | 36179 ft | 499 kts | 70° |
| 2026-05-06 18:57 | 60.02415 | -164.44132 | 36174 ft | 499 kts | 70° |
| 2026-05-06 18:57 | 60.04465 | -164.30848 | 36175 ft | 500 kts | 70° |
| 2026-05-06 18:58 | 60.06503 | -164.17545 | 36182 ft | 500 kts | 71° |
| 2026-05-06 18:58 | 60.08529 | -164.04218 | 36197 ft | 500 kts | 71° |
| 2026-05-06 18:59 | 60.10511 | -163.91076 | 36179 ft | 501 kts | 71° |
| 2026-05-06 18:59 | 60.12512 | -163.77700 | 36180 ft | 501 kts | 71° |
| 2026-05-06 19:00 | 60.14500 | -163.64304 | 36177 ft | 501 kts | 71° |
| 2026-05-06 19:00 | 60.16476 | -163.50889 | 36180 ft | 501 kts | 71° |
| 2026-05-06 19:01 | 60.18426 | -163.37544 | 36179 ft | 501 kts | 71° |
| 2026-05-06 19:01 | 60.20374 | -163.24101 | 36177 ft | 501 kts | 71° |
| 2026-05-06 19:02 | 60.22310 | -163.10629 | 36177 ft | 501 kts | 72° |
| 2026-05-06 19:02 | 60.24205 | -162.97342 | 36181 ft | 502 kts | 72° |
| 2026-05-06 19:03 | 60.26120 | -162.83816 | 36180 ft | 502 kts | 72° |
| 2026-05-06 19:03 | 60.28022 | -162.70267 | 36174 ft | 503 kts | 72° |
| 2026-05-06 19:04 | 60.29379 | -162.56404 | 36173 ft | 505 kts | 82° |
| 2026-05-06 19:04 | 60.30116 | -162.42369 | 36175 ft | 505 kts | 83° |
| 2026-05-06 19:05 | 60.30818 | -162.28219 | 36174 ft | 505 kts | 83° |
| 2026-05-06 19:05 | 60.31544 | -162.14116 | 36175 ft | 505 kts | 82° |
| 2026-05-06 19:06 | 60.32277 | -162.00087 | 36171 ft | 505 kts | 82° |
| 2026-05-06 19:06 | 60.32993 | -161.86182 | 36175 ft | 505 kts | 83° |
| 2026-05-06 19:07 | 60.33704 | -161.72047 | 36169 ft | 506 kts | 83° |
| 2026-05-06 19:07 | 60.34398 | -161.57916 | 36150 ft | 506 kts | 83° |
| 2026-05-06 19:08 | 60.35078 | -161.43751 | 36157 ft | 507 kts | 83° |
| 2026-05-06 19:08 | 60.35739 | -161.29653 | 36138 ft | 507 kts | 83° |
| 2026-05-06 19:09 | 60.36390 | -161.15448 | 36134 ft | 507 kts | 83° |
| 2026-05-06 19:09 | 60.37025 | -161.01255 | 36126 ft | 507 kts | 83° |
| 2026-05-06 19:10 | 60.37636 | -160.87254 | 36128 ft | 507 kts | 83° |
| 2026-05-06 19:10 | 60.38241 | -160.73049 | 36112 ft | 507 kts | 84° |
| 2026-05-06 19:11 | 60.38828 | -160.58905 | 36128 ft | 508 kts | 84° |
| 2026-05-06 19:11 | 60.39404 | -160.44670 | 36119 ft | 508 kts | 84° |
| 2026-05-06 19:12 | 60.39964 | -160.30428 | 36111 ft | 508 kts | 84° |
| 2026-05-06 19:12 | 60.40510 | -160.16155 | 36115 ft | 509 kts | 84° |
| 2026-05-06 19:13 | 60.41041 | -160.01885 | 36116 ft | 509 kts | 84° |
| 2026-05-06 19:13 | 60.41550 | -159.87803 | 36142 ft | 509 kts | 85° |
| 2026-05-06 19:14 | 60.42051 | -159.73506 | 36131 ft | 510 kts | 85° |
| 2026-05-06 19:14 | 60.42538 | -159.59170 | 36135 ft | 510 kts | 85° |
| 2026-05-06 19:15 | 60.43010 | -159.44835 | 36139 ft | 510 kts | 85° |
| 2026-05-06 19:15 | 60.43463 | -159.30590 | 36125 ft | 510 kts | 85° |
| 2026-05-06 19:16 | 60.43904 | -159.16196 | 36130 ft | 510 kts | 85° |
| 2026-05-06 19:16 | 60.44330 | -159.01837 | 36133 ft | 510 kts | 85° |
| 2026-05-06 19:17 | 60.44734 | -158.87697 | 36127 ft | 510 kts | 86° |
| 2026-05-06 19:17 | 60.45127 | -158.73406 | 36127 ft | 510 kts | 86° |
| 2026-05-06 19:18 | 60.45507 | -158.59016 | 36128 ft | 510 kts | 86° |
| 2026-05-06 19:18 | 60.45870 | -158.44685 | 36123 ft | 510 kts | 86° |
| 2026-05-06 19:19 | 60.46217 | -158.30359 | 36123 ft | 510 kts | 86° |
| 2026-05-06 19:19 | 60.46551 | -158.15944 | 36120 ft | 510 kts | 86° |
| 2026-05-06 19:20 | 60.46867 | -158.01635 | 36126 ft | 510 kts | 86° |
| 2026-05-06 19:20 | 60.47165 | -157.87450 | 36114 ft | 510 kts | 86° |
| 2026-05-06 19:21 | 60.47452 | -157.73072 | 36117 ft | 510 kts | 87° |
| 2026-05-06 19:21 | 60.47722 | -157.58746 | 36118 ft | 511 kts | 87° |
| 2026-05-06 19:22 | 60.47979 | -157.44330 | 36111 ft | 511 kts | 87° |
| 2026-05-06 19:22 | 60.48219 | -157.29940 | 36113 ft | 511 kts | 87° |
| 2026-05-06 19:23 | 60.48444 | -157.15502 | 36110 ft | 511 kts | 87° |
| 2026-05-06 19:23 | 60.48654 | -157.01129 | 36108 ft | 512 kts | 88° |
| 2026-05-06 19:24 | 60.48846 | -156.86902 | 36102 ft | 512 kts | 88° |
| 2026-05-06 19:24 | 60.49025 | -156.72450 | 36126 ft | 512 kts | 88° |
| 2026-05-06 19:25 | 60.49188 | -156.58039 | 36095 ft | 513 kts | 88° |
| 2026-05-06 19:25 | 60.49337 | -156.43556 | 36092 ft | 513 kts | 88° |
| 2026-05-06 19:26 | 60.49469 | -156.29086 | 36076 ft | 513 kts | 88° |
| 2026-05-06 19:26 | 60.49585 | -156.14688 | 36082 ft | 513 kts | 88° |
| 2026-05-06 19:27 | 60.49687 | -156.00185 | 36076 ft | 513 kts | 89° |
| 2026-05-06 19:27 | 60.49772 | -155.85909 | 36073 ft | 513 kts | 89° |
| 2026-05-06 19:28 | 60.49842 | -155.71407 | 36070 ft | 514 kts | 89° |
| 2026-05-06 19:28 | 60.49897 | -155.57001 | 36063 ft | 514 kts | 89° |
| 2026-05-06 19:29 | 60.49937 | -155.42464 | 36063 ft | 514 kts | 89° |
| 2026-05-06 19:29 | 60.49961 | -155.27985 | 36062 ft | 514 kts | 89° |
| 2026-05-06 19:30 | 60.49969 | -155.13465 | 36078 ft | 514 kts | 89° |
| 2026-05-06 19:30 | 60.50008 | -154.99266 | 36043 ft | 510 kts | 81° |
| 2026-05-06 19:31 | 60.50115 | -154.84996 | 36071 ft | 511 kts | 93° |
| 2026-05-06 19:31 | 60.50424 | -154.63236 | 36062 ft | 516 kts | 78° |
| 2026-05-06 19:32 | 60.52221 | -154.49146 | 36058 ft | 515 kts | 73° |
| 2026-05-06 19:32 | 60.54104 | -154.35103 | 36045 ft | 515 kts | 74° |
| 2026-05-06 19:33 | 60.55912 | -154.21155 | 36046 ft | 514 kts | 74° |
| 2026-05-06 19:33 | 60.57699 | -154.07073 | 36043 ft | 513 kts | 74° |
| 2026-05-06 19:34 | 60.59438 | -153.93227 | 36064 ft | 513 kts | 75° |
| 2026-05-06 19:34 | 60.61193 | -153.79145 | 36037 ft | 513 kts | 75° |
| 2026-05-06 19:35 | 60.62932 | -153.65068 | 35952 ft | 513 kts | 75° |
| 2026-05-06 19:35 | 60.63789 | -153.58070 | 35754 ft | 505 kts | 75° |
| 2026-05-06 19:35 | 60.64634 | -153.51149 | 35282 ft | 500 kts | 75° |
| 2026-05-06 19:36 | 60.65471 | -153.44263 | 34500 ft | 503 kts | 75° |
| 2026-05-06 19:36 | 60.66303 | -153.37388 | 33574 ft | 509 kts | 75° |
| 2026-05-06 19:36 | 60.67150 | -153.30360 | 32616 ft | 512 kts | 74° |
| 2026-05-06 19:36 | 60.67997 | -153.23295 | 31726 ft | 512 kts | 74° |
| 2026-05-06 19:37 | 60.68840 | -153.16226 | 30823 ft | 513 kts | 74° |
| 2026-05-06 19:37 | 60.69681 | -153.09133 | 29997 ft | 513 kts | 73° |
| 2026-05-06 19:37 | 60.70510 | -153.02103 | 29289 ft | 507 kts | 73° |
| 2026-05-06 19:37 | 60.71027 | -152.97694 | 28997 ft | 501 kts | 74° |
| 2026-05-06 19:38 | 60.72096 | -152.88534 | 28385 ft | 490 kts | 74° |
| 2026-05-06 19:38 | 60.72877 | -152.81799 | 27759 ft | 485 kts | 74° |
| 2026-05-06 19:38 | 60.73653 | -152.75090 | 27105 ft | 482 kts | 74° |
| 2026-05-06 19:38 | 60.74419 | -152.68455 | 26469 ft | 478 kts | 74° |
| 2026-05-06 19:39 | 60.75164 | -152.61965 | 25916 ft | 473 kts | 74° |
| 2026-05-06 19:39 | 60.75909 | -152.55448 | 25388 ft | 468 kts | 74° |
| 2026-05-06 19:39 | 60.76643 | -152.48980 | 24872 ft | 463 kts | 75° |
| 2026-05-06 19:39 | 60.77365 | -152.42587 | 24317 ft | 460 kts | 75° |
| 2026-05-06 19:40 | 60.78080 | -152.36235 | 23811 ft | 456 kts | 75° |
| 2026-05-06 19:40 | 60.78785 | -152.29942 | 23247 ft | 451 kts | 75° |
| 2026-05-06 19:40 | 60.79482 | -152.23701 | 22693 ft | 446 kts | 75° |
| 2026-05-06 19:40 | 60.80168 | -152.17523 | 22171 ft | 441 kts | 76° |
| 2026-05-06 19:41 | 60.80840 | -152.11439 | 21630 ft | 436 kts | 76° |
| 2026-05-06 19:41 | 60.81504 | -152.05406 | 21074 ft | 432 kts | 76° |
| 2026-05-06 19:41 | 60.82139 | -151.99616 | 20617 ft | 427 kts | 77° |
| 2026-05-06 19:41 | 60.82785 | -151.93697 | 20135 ft | 422 kts | 77° |
| 2026-05-06 19:42 | 60.83420 | -151.87848 | 19616 ft | 419 kts | 77° |
| 2026-05-06 19:42 | 60.84042 | -151.82099 | 19115 ft | 416 kts | 78° |
| 2026-05-06 19:42 | 60.84664 | -151.76322 | 18625 ft | 412 kts | 78° |
| 2026-05-06 19:42 | 60.85277 | -151.70608 | 18135 ft | 409 kts | 78° |
| 2026-05-06 19:43 | 60.85681 | -151.66832 | 17785 ft | 406 kts | 78° |
| 2026-05-06 19:43 | 60.86282 | -151.61195 | 17251 ft | 403 kts | 78° |
| 2026-05-06 19:43 | 60.86876 | -151.55602 | 16731 ft | 400 kts | 78° |
| 2026-05-06 19:43 | 60.87463 | -151.50031 | 16229 ft | 397 kts | 78° |
| 2026-05-06 19:44 | 60.88117 | -151.44557 | 15704 ft | 392 kts | 73° |
| 2026-05-06 19:44 | 60.89074 | -151.39300 | 15161 ft | 392 kts | 68° |
| 2026-05-06 19:44 | 60.90147 | -151.34181 | 14788 ft | 387 kts | 67° |
| 2026-05-06 19:44 | 60.91197 | -151.29199 | 14727 ft | 375 kts | 67° |
| 2026-05-06 19:45 | 60.92164 | -151.24468 | 14553 ft | 348 kts | 68° |
| 2026-05-06 19:45 | 60.93048 | -151.20010 | 14280 ft | 325 kts | 69° |
| 2026-05-06 19:45 | 60.93866 | -151.15796 | 13814 ft | 311 kts | 69° |
| 2026-05-06 19:45 | 60.94658 | -151.11689 | 13132 ft | 303 kts | 69° |
| 2026-05-06 19:46 | 60.95395 | -151.07822 | 12980 ft | 283 kts | 71° |
| 2026-05-06 19:46 | 60.96025 | -151.03959 | 12660 ft | 287 kts | 74° |
| 2026-05-06 19:46 | 60.96629 | -150.99977 | 12369 ft | 297 kts | 74° |
| 2026-05-06 19:46 | 60.97225 | -150.96041 | 12056 ft | 301 kts | 74° |
| 2026-05-06 19:47 | 60.97856 | -150.91934 | 11712 ft | 300 kts | 73° |
| 2026-05-06 19:47 | 60.98487 | -150.87854 | 11386 ft | 296 kts | 73° |
| 2026-05-06 19:47 | 60.99105 | -150.83849 | 11064 ft | 292 kts | 73° |
| 2026-05-06 19:47 | 60.99714 | -150.79895 | 10756 ft | 288 kts | 74° |
| 2026-05-06 19:48 | 61.00276 | -150.75976 | 10428 ft | 283 kts | 77° |
| 2026-05-06 19:48 | 61.00734 | -150.72053 | 10090 ft | 280 kts | 78° |
| 2026-05-06 19:48 | 61.01167 | -150.68164 | 9855 ft | 274 kts | 78° |
| 2026-05-06 19:48 | 61.01592 | -150.64354 | 9539 ft | 273 kts | 78° |
| 2026-05-06 19:49 | 61.02021 | -150.60542 | 9221 ft | 275 kts | 78° |
| 2026-05-06 19:49 | 61.02463 | -150.56647 | 8917 ft | 281 kts | 78° |
| 2026-05-06 19:49 | 61.02912 | -150.52702 | 8589 ft | 283 kts | 78° |
| 2026-05-06 19:49 | 61.03359 | -150.48795 | 8291 ft | 281 kts | 78° |
| 2026-05-06 19:50 | 61.03804 | -150.44892 | 7974 ft | 278 kts | 78° |
| 2026-05-06 19:50 | 61.04242 | -150.41032 | 7666 ft | 274 kts | 78° |
| 2026-05-06 19:50 | 61.04672 | -150.37223 | 7366 ft | 271 kts | 78° |
| 2026-05-06 19:50 | 61.05165 | -150.33522 | 7039 ft | 263 kts | 66° |
| 2026-05-06 19:51 | 61.06295 | -150.30613 | 6770 ft | 262 kts | 37° |
| 2026-05-06 19:51 | 61.07880 | -150.28626 | 6487 ft | 273 kts | 30° |
| 2026-05-06 19:51 | 61.09552 | -150.26672 | 6119 ft | 277 kts | 30° |
| 2026-05-06 19:51 | 61.11226 | -150.24696 | 5743 ft | 277 kts | 31° |
| 2026-05-06 19:52 | 61.12893 | -150.22717 | 5401 ft | 276 kts | 31° |
| 2026-05-06 19:52 | 61.14589 | -150.20895 | 5043 ft | 271 kts | 18° |
| 2026-05-06 19:52 | 61.16469 | -150.20584 | 5031 ft | 276 kts | 352° |
| 2026-05-06 19:52 | 61.18359 | -150.21371 | 5007 ft | 276 kts | 347° |
| 2026-05-06 19:53 | 61.20202 | -150.22185 | 4984 ft | 270 kts | 348° |
| 2026-05-06 19:53 | 61.21992 | -150.22956 | 4967 ft | 255 kts | 348° |
| 2026-05-06 19:53 | 61.23677 | -150.23676 | 4962 ft | 239 kts | 348° |
| 2026-05-06 19:53 | 61.25254 | -150.24466 | 4881 ft | 229 kts | 345° |
| 2026-05-06 19:54 | 61.26785 | -150.25340 | 4635 ft | 228 kts | 344° |
| 2026-05-06 19:54 | 61.28317 | -150.26220 | 4368 ft | 228 kts | 344° |
| 2026-05-06 19:54 | 61.29845 | -150.27092 | 4132 ft | 227 kts | 345° |
| 2026-05-06 19:54 | 61.31372 | -150.27958 | 3907 ft | 226 kts | 345° |
| 2026-05-06 19:55 | 61.32889 | -150.28824 | 3683 ft | 226 kts | 344° |
| 2026-05-06 19:55 | 61.34405 | -150.29697 | 3456 ft | 225 kts | 345° |
| 2026-05-06 19:55 | 61.35910 | -150.30563 | 3242 ft | 224 kts | 345° |
| 2026-05-06 19:55 | 61.37410 | -150.31317 | 3061 ft | 218 kts | 358° |
| 2026-05-06 19:56 | 61.38861 | -150.30658 | 3010 ft | 216 kts | 35° |
| 2026-05-06 19:56 | 61.39835 | -150.28454 | 2983 ft | 206 kts | 71° |
| 2026-05-06 19:56 | 61.40209 | -150.25586 | 3062 ft | 204 kts | 81° |
| 2026-05-06 19:56 | 61.40473 | -150.22832 | 3040 ft | 181 kts | 82° |
| 2026-05-06 19:57 | 61.40668 | -150.20432 | 2948 ft | 152 kts | 86° |
| 2026-05-06 19:57 | 61.40780 | -150.18181 | 3041 ft | 160 kts | 88° |
| 2026-05-06 19:57 | 61.40855 | -150.15897 | 3000 ft | 152 kts | 97° |
| 2026-05-06 19:57 | 61.40368 | -150.14018 | 2992 ft | 153 kts | 147° |
| 2026-05-06 19:58 | 61.39401 | -150.13157 | 3008 ft | 152 kts | 160° |
| 2026-05-06 19:58 | 61.38419 | -150.12308 | 3013 ft | 153 kts | 159° |
| 2026-05-06 19:58 | 61.37426 | -150.11494 | 3001 ft | 154 kts | 161° |
| 2026-05-06 19:58 | 61.36411 | -150.10796 | 2986 ft | 152 kts | 164° |
| 2026-05-06 19:59 | 61.35406 | -150.10178 | 2973 ft | 149 kts | 165° |
| 2026-05-06 19:59 | 61.34414 | -150.09599 | 2971 ft | 147 kts | 166° |
| 2026-05-06 19:59 | 61.33449 | -150.09048 | 2973 ft | 145 kts | 166° |
| 2026-05-06 19:59 | 61.32478 | -150.08497 | 2979 ft | 146 kts | 165° |
| 2026-05-06 20:00 | 61.31466 | -150.07915 | 2750 ft | 152 kts | 165° |
| 2026-05-06 20:00 | 61.30456 | -150.07343 | 2524 ft | 149 kts | 165° |
| 2026-05-06 20:00 | 61.29471 | -150.06789 | 2297 ft | 146 kts | 165° |
| 2026-05-06 20:00 | 61.28491 | -150.06238 | 2102 ft | 146 kts | 166° |
| 2026-05-06 20:01 | 61.27503 | -150.05682 | 1896 ft | 148 kts | 166° |
| 2026-05-06 20:01 | 61.26503 | -150.05120 | 1667 ft | 149 kts | 166° |
| 2026-05-06 20:01 | 61.25503 | -150.04557 | 1439 ft | 148 kts | 166° |
| 2026-05-06 20:01 | 61.24521 | -150.04004 | 1216 ft | 146 kts | 167° |
| 2026-05-06 20:02 | 61.23536 | -150.03452 | 990 ft | 147 kts | 167° |
| 2026-05-06 20:02 | 61.22560 | -150.02906 | 783 ft | 146 kts | 166° |
| 2026-05-06 20:02 | 61.21597 | -150.02355 | 583 ft | 142 kts | 166° |
| 2026-05-06 20:02 | 61.20642 | -150.01824 | 377 ft | 142 kts | 166° |
| 2026-05-06 20:03 | 61.19688 | -150.01286 | 176 ft | 140 kts | 166° |
| 2026-05-06 20:03 | 61.18840 | -150.00816 | 142 ft | 105 kts | 165° |
| 2026-05-06 20:03 | 61.18311 | -150.00520 | 125 ft | 52 kts | 165° |
| 2026-05-06 20:03 | 61.18016 | -150.00341 | 123 ft | 43 kts | 158° |
| 2026-05-06 20:04 | 61.17839 | -150.00115 | 112 ft | 26 kts | 139° |
| 2026-05-06 20:04 | 61.17748 | -149.99912 | 117 ft | 7 kts | 124° |
| 2026-05-06 20:04 | 61.17752 | -149.99873 | 117 ft | 3 kts | 42° |
| 2026-05-06 20:04 | 61.17826 | -149.99902 | 117 ft | 20 kts | 347° |
| 2026-05-06 20:05 | 61.18046 | -150.00024 | 128 ft | 38 kts | 344° |
| 2026-05-06 20:05 | 61.18291 | -150.00157 | 123 ft | 35 kts | 344° |
| 2026-05-06 20:05 | 61.18438 | -150.00240 | 125 ft | 13 kts | 345° |
| 2026-05-06 20:05 | 61.18529 | -150.00290 | 128 ft | 13 kts | 345° |
| 2026-05-06 20:06 | 61.18642 | -150.00346 | 127 ft | 15 kts | 360° |
| 2026-05-06 20:06 | 61.18705 | -150.00206 | 124 ft | 15 kts | 75° |
| 2026-05-06 20:06 | 61.18744 | -150.00006 | 131 ft | 15 kts | 43° |
| 2026-05-06 20:06 | 61.18812 | -150.00031 | 133 ft | 10 kts | 299° |
| 2026-05-06 20:07 | 61.18804 | -150.00154 | 115 ft | 3 kts | 255° |
| 2026-05-06 20:07 | 61.18804 | -150.00156 | 115 ft | 0 kts | 255° |